<?xml version="1.0" encoding="UTF-8" standalone="no" ?>
<gpx xmlns="http://www.topografix.com/GPX/1/1" xmlns:xsi="http://www.w3.org/2001/XMLSchema-instance" xsi:schemaLocation="http://www.topografix.com/GPX/1/1 http://www.topografix.com/GPX/1/1/gpx.xsd" version="1.1" creator="VisuGPX - https://www.visugpx.com">
  <metadata>
    <name>vtt circuit n°7 riaillé gr 3</name>
    <desc><![CDATA[sortie club groupe 3, temps ensoleillé mais froid.
bon kilométrage pour un groupe  de petits.]]></desc>
  </metadata>
  <trk>
    <name><![CDATA[2018-02-24-14-55-46 on GPSies.com]]></name>
    <trkseg>
      <trkpt lat="47.51395" lon="-1.28814">
        <ele>23</ele>
        <time>2018-02-24T14:55:46Z</time>
      </trkpt>
      <trkpt lat="47.51401" lon="-1.28816">
        <ele>23</ele>
        <time>2018-02-24T15:00:22Z</time>
      </trkpt>
      <trkpt lat="47.51406" lon="-1.28812">
        <ele>23</ele>
        <time>2018-02-24T15:00:25Z</time>
      </trkpt>
      <trkpt lat="47.51413" lon="-1.28811">
        <ele>23</ele>
        <time>2018-02-24T15:00:28Z</time>
      </trkpt>
      <trkpt lat="47.51418" lon="-1.28816">
        <ele>23</ele>
        <time>2018-02-24T15:00:30Z</time>
      </trkpt>
      <trkpt lat="47.51423" lon="-1.28826">
        <ele>23</ele>
        <time>2018-02-24T15:00:32Z</time>
      </trkpt>
      <trkpt lat="47.51433" lon="-1.28838">
        <ele>23</ele>
        <time>2018-02-24T15:00:35Z</time>
      </trkpt>
      <trkpt lat="47.51463" lon="-1.28873">
        <ele>23</ele>
        <time>2018-02-24T15:00:45Z</time>
      </trkpt>
      <trkpt lat="47.51485" lon="-1.28895">
        <ele>24</ele>
        <time>2018-02-24T15:00:52Z</time>
      </trkpt>
      <trkpt lat="47.51493" lon="-1.28905">
        <ele>25</ele>
        <time>2018-02-24T15:00:55Z</time>
      </trkpt>
      <trkpt lat="47.51509" lon="-1.28924">
        <ele>26</ele>
        <time>2018-02-24T15:01:01Z</time>
      </trkpt>
      <trkpt lat="47.51512" lon="-1.28927">
        <ele>26</ele>
        <time>2018-02-24T15:01:02Z</time>
      </trkpt>
      <trkpt lat="47.51527" lon="-1.28944">
        <ele>27</ele>
        <time>2018-02-24T15:01:07Z</time>
      </trkpt>
      <trkpt lat="47.51529" lon="-1.28947">
        <ele>27</ele>
        <time>2018-02-24T15:01:08Z</time>
      </trkpt>
      <trkpt lat="47.51544" lon="-1.28966">
        <ele>28</ele>
        <time>2018-02-24T15:01:14Z</time>
      </trkpt>
      <trkpt lat="47.5155" lon="-1.28966">
        <ele>28</ele>
        <time>2018-02-24T15:01:16Z</time>
      </trkpt>
      <trkpt lat="47.51564" lon="-1.28957">
        <ele>29</ele>
        <time>2018-02-24T15:01:21Z</time>
      </trkpt>
      <trkpt lat="47.51567" lon="-1.28955">
        <ele>29</ele>
        <time>2018-02-24T15:01:22Z</time>
      </trkpt>
      <trkpt lat="47.51587" lon="-1.28941">
        <ele>30</ele>
        <time>2018-02-24T15:01:28Z</time>
      </trkpt>
      <trkpt lat="47.5159" lon="-1.28939">
        <ele>30</ele>
        <time>2018-02-24T15:01:29Z</time>
      </trkpt>
      <trkpt lat="47.51614" lon="-1.28926">
        <ele>31</ele>
        <time>2018-02-24T15:01:37Z</time>
      </trkpt>
      <trkpt lat="47.51619" lon="-1.28914">
        <ele>31</ele>
        <time>2018-02-24T15:01:42Z</time>
      </trkpt>
      <trkpt lat="47.51619" lon="-1.28912">
        <ele>31</ele>
        <time>2018-02-24T15:01:43Z</time>
      </trkpt>
      <trkpt lat="47.51625" lon="-1.28906">
        <ele>31</ele>
        <time>2018-02-24T15:01:48Z</time>
      </trkpt>
      <trkpt lat="47.51637" lon="-1.28891">
        <ele>31</ele>
        <time>2018-02-24T15:01:53Z</time>
      </trkpt>
      <trkpt lat="47.51646" lon="-1.2889">
        <ele>31</ele>
        <time>2018-02-24T15:01:55Z</time>
      </trkpt>
      <trkpt lat="47.51651" lon="-1.28891">
        <ele>31</ele>
        <time>2018-02-24T15:01:56Z</time>
      </trkpt>
      <trkpt lat="47.51666" lon="-1.28892">
        <ele>30</ele>
        <time>2018-02-24T15:01:59Z</time>
      </trkpt>
      <trkpt lat="47.51681" lon="-1.28891">
        <ele>29</ele>
        <time>2018-02-24T15:02:03Z</time>
      </trkpt>
      <trkpt lat="47.51689" lon="-1.2889">
        <ele>29</ele>
        <time>2018-02-24T15:02:05Z</time>
      </trkpt>
      <trkpt lat="47.51712" lon="-1.28888">
        <ele>28</ele>
        <time>2018-02-24T15:02:11Z</time>
      </trkpt>
      <trkpt lat="47.51716" lon="-1.28888">
        <ele>28</ele>
        <time>2018-02-24T15:02:12Z</time>
      </trkpt>
      <trkpt lat="47.51739" lon="-1.2889">
        <ele>28</ele>
        <time>2018-02-24T15:02:19Z</time>
      </trkpt>
      <trkpt lat="47.51759" lon="-1.28894">
        <ele>29</ele>
        <time>2018-02-24T15:02:26Z</time>
      </trkpt>
      <trkpt lat="47.51772" lon="-1.28897">
        <ele>30</ele>
        <time>2018-02-24T15:02:30Z</time>
      </trkpt>
      <trkpt lat="47.51782" lon="-1.289">
        <ele>30</ele>
        <time>2018-02-24T15:02:33Z</time>
      </trkpt>
      <trkpt lat="47.51805" lon="-1.28901">
        <ele>30</ele>
        <time>2018-02-24T15:02:40Z</time>
      </trkpt>
      <trkpt lat="47.51831" lon="-1.289">
        <ele>30</ele>
        <time>2018-02-24T15:02:48Z</time>
      </trkpt>
      <trkpt lat="47.51844" lon="-1.28899">
        <ele>29</ele>
        <time>2018-02-24T15:02:52Z</time>
      </trkpt>
      <trkpt lat="47.5185" lon="-1.289">
        <ele>29</ele>
        <time>2018-02-24T15:02:54Z</time>
      </trkpt>
      <trkpt lat="47.5186" lon="-1.289">
        <ele>28</ele>
        <time>2018-02-24T15:02:57Z</time>
      </trkpt>
      <trkpt lat="47.5188" lon="-1.28903">
        <ele>28</ele>
        <time>2018-02-24T15:03:03Z</time>
      </trkpt>
      <trkpt lat="47.51904" lon="-1.28907">
        <ele>29</ele>
        <time>2018-02-24T15:03:10Z</time>
      </trkpt>
      <trkpt lat="47.51934" lon="-1.2891">
        <ele>29</ele>
        <time>2018-02-24T15:03:19Z</time>
      </trkpt>
      <trkpt lat="47.51956" lon="-1.28914">
        <ele>30</ele>
        <time>2018-02-24T15:03:26Z</time>
      </trkpt>
      <trkpt lat="47.51962" lon="-1.28916">
        <ele>30</ele>
        <time>2018-02-24T15:03:28Z</time>
      </trkpt>
      <trkpt lat="47.51977" lon="-1.28926">
        <ele>30</ele>
        <time>2018-02-24T15:03:33Z</time>
      </trkpt>
      <trkpt lat="47.51999" lon="-1.28941">
        <ele>31</ele>
        <time>2018-02-24T15:03:40Z</time>
      </trkpt>
      <trkpt lat="47.52005" lon="-1.28946">
        <ele>31</ele>
        <time>2018-02-24T15:03:42Z</time>
      </trkpt>
      <trkpt lat="47.52033" lon="-1.28965">
        <ele>32</ele>
        <time>2018-02-24T15:03:51Z</time>
      </trkpt>
      <trkpt lat="47.52036" lon="-1.28966">
        <ele>32</ele>
        <time>2018-02-24T15:03:52Z</time>
      </trkpt>
      <trkpt lat="47.52059" lon="-1.28982">
        <ele>33</ele>
        <time>2018-02-24T15:04:00Z</time>
      </trkpt>
      <trkpt lat="47.52061" lon="-1.28984">
        <ele>33</ele>
        <time>2018-02-24T15:04:01Z</time>
      </trkpt>
      <trkpt lat="47.52076" lon="-1.29">
        <ele>33</ele>
        <time>2018-02-24T15:04:07Z</time>
      </trkpt>
      <trkpt lat="47.5209" lon="-1.29016">
        <ele>34</ele>
        <time>2018-02-24T15:04:13Z</time>
      </trkpt>
      <trkpt lat="47.521" lon="-1.29038">
        <ele>34</ele>
        <time>2018-02-24T15:04:19Z</time>
      </trkpt>
      <trkpt lat="47.52106" lon="-1.29046">
        <ele>34</ele>
        <time>2018-02-24T15:04:22Z</time>
      </trkpt>
      <trkpt lat="47.52123" lon="-1.29057">
        <ele>34</ele>
        <time>2018-02-24T15:04:29Z</time>
      </trkpt>
      <trkpt lat="47.52126" lon="-1.29068">
        <ele>34</ele>
        <time>2018-02-24T15:04:33Z</time>
      </trkpt>
      <trkpt lat="47.52125" lon="-1.29071">
        <ele>34</ele>
        <time>2018-02-24T15:04:34Z</time>
      </trkpt>
      <trkpt lat="47.5212" lon="-1.29085">
        <ele>34</ele>
        <time>2018-02-24T15:04:37Z</time>
      </trkpt>
      <trkpt lat="47.52118" lon="-1.29091">
        <ele>35</ele>
        <time>2018-02-24T15:04:39Z</time>
      </trkpt>
      <trkpt lat="47.52117" lon="-1.29094">
        <ele>35</ele>
        <time>2018-02-24T15:04:40Z</time>
      </trkpt>
      <trkpt lat="47.52112" lon="-1.29102">
        <ele>36</ele>
        <time>2018-02-24T15:04:43Z</time>
      </trkpt>
      <trkpt lat="47.52107" lon="-1.29105">
        <ele>36</ele>
        <time>2018-02-24T15:04:45Z</time>
      </trkpt>
      <trkpt lat="47.52097" lon="-1.29116">
        <ele>37</ele>
        <time>2018-02-24T15:06:22Z</time>
      </trkpt>
      <trkpt lat="47.52091" lon="-1.29122">
        <ele>37</ele>
        <time>2018-02-24T15:06:25Z</time>
      </trkpt>
      <trkpt lat="47.52077" lon="-1.29142">
        <ele>37</ele>
        <time>2018-02-24T15:06:31Z</time>
      </trkpt>
      <trkpt lat="47.52057" lon="-1.29171">
        <ele>37</ele>
        <time>2018-02-24T15:06:39Z</time>
      </trkpt>
      <trkpt lat="47.52044" lon="-1.29202">
        <ele>38</ele>
        <time>2018-02-24T15:06:46Z</time>
      </trkpt>
      <trkpt lat="47.52042" lon="-1.29208">
        <ele>38</ele>
        <time>2018-02-24T15:06:47Z</time>
      </trkpt>
      <trkpt lat="47.52036" lon="-1.29239">
        <ele>38</ele>
        <time>2018-02-24T15:06:53Z</time>
      </trkpt>
      <trkpt lat="47.52032" lon="-1.29255">
        <ele>39</ele>
        <time>2018-02-24T15:06:56Z</time>
      </trkpt>
      <trkpt lat="47.52024" lon="-1.29292">
        <ele>40</ele>
        <time>2018-02-24T15:07:03Z</time>
      </trkpt>
      <trkpt lat="47.52022" lon="-1.29307">
        <ele>40</ele>
        <time>2018-02-24T15:07:06Z</time>
      </trkpt>
      <trkpt lat="47.5202" lon="-1.29316">
        <ele>40</ele>
        <time>2018-02-24T15:07:08Z</time>
      </trkpt>
      <trkpt lat="47.52018" lon="-1.2934">
        <ele>41</ele>
        <time>2018-02-24T15:07:14Z</time>
      </trkpt>
      <trkpt lat="47.52019" lon="-1.29343">
        <ele>41</ele>
        <time>2018-02-24T15:07:15Z</time>
      </trkpt>
      <trkpt lat="47.5202" lon="-1.29345">
        <ele>42</ele>
        <time>2018-02-24T15:07:16Z</time>
      </trkpt>
      <trkpt lat="47.52025" lon="-1.29352">
        <ele>42</ele>
        <time>2018-02-24T15:07:19Z</time>
      </trkpt>
      <trkpt lat="47.52035" lon="-1.29374">
        <ele>42</ele>
        <time>2018-02-24T15:07:24Z</time>
      </trkpt>
      <trkpt lat="47.52043" lon="-1.29398">
        <ele>42</ele>
        <time>2018-02-24T15:07:29Z</time>
      </trkpt>
      <trkpt lat="47.52045" lon="-1.29403">
        <ele>42</ele>
        <time>2018-02-24T15:07:30Z</time>
      </trkpt>
      <trkpt lat="47.52059" lon="-1.29451">
        <ele>43</ele>
        <time>2018-02-24T15:07:39Z</time>
      </trkpt>
      <trkpt lat="47.52064" lon="-1.29474">
        <ele>43</ele>
        <time>2018-02-24T15:07:45Z</time>
      </trkpt>
      <trkpt lat="47.52067" lon="-1.29482">
        <ele>43</ele>
        <time>2018-02-24T15:07:50Z</time>
      </trkpt>
      <trkpt lat="47.52072" lon="-1.295">
        <ele>43</ele>
        <time>2018-02-24T15:07:54Z</time>
      </trkpt>
      <trkpt lat="47.52085" lon="-1.29543">
        <ele>44</ele>
        <time>2018-02-24T15:08:02Z</time>
      </trkpt>
      <trkpt lat="47.52092" lon="-1.29569">
        <ele>44</ele>
        <time>2018-02-24T15:08:07Z</time>
      </trkpt>
      <trkpt lat="47.521" lon="-1.29599">
        <ele>45</ele>
        <time>2018-02-24T15:08:13Z</time>
      </trkpt>
      <trkpt lat="47.52111" lon="-1.29634">
        <ele>45</ele>
        <time>2018-02-24T15:08:20Z</time>
      </trkpt>
      <trkpt lat="47.52113" lon="-1.29639">
        <ele>46</ele>
        <time>2018-02-24T15:08:21Z</time>
      </trkpt>
      <trkpt lat="47.52123" lon="-1.29673">
        <ele>47</ele>
        <time>2018-02-24T15:08:28Z</time>
      </trkpt>
      <trkpt lat="47.52126" lon="-1.29683">
        <ele>47</ele>
        <time>2018-02-24T15:08:30Z</time>
      </trkpt>
      <trkpt lat="47.52133" lon="-1.29708">
        <ele>48</ele>
        <time>2018-02-24T15:08:35Z</time>
      </trkpt>
      <trkpt lat="47.5214" lon="-1.29731">
        <ele>48</ele>
        <time>2018-02-24T15:08:40Z</time>
      </trkpt>
      <trkpt lat="47.52147" lon="-1.29747">
        <ele>49</ele>
        <time>2018-02-24T15:08:44Z</time>
      </trkpt>
      <trkpt lat="47.52153" lon="-1.29752">
        <ele>49</ele>
        <time>2018-02-24T15:08:46Z</time>
      </trkpt>
      <trkpt lat="47.52179" lon="-1.29777">
        <ele>49</ele>
        <time>2018-02-24T15:08:55Z</time>
      </trkpt>
      <trkpt lat="47.52206" lon="-1.29803">
        <ele>49</ele>
        <time>2018-02-24T15:09:04Z</time>
      </trkpt>
      <trkpt lat="47.52228" lon="-1.29822">
        <ele>50</ele>
        <time>2018-02-24T15:09:11Z</time>
      </trkpt>
      <trkpt lat="47.52234" lon="-1.29828">
        <ele>50</ele>
        <time>2018-02-24T15:09:13Z</time>
      </trkpt>
      <trkpt lat="47.52248" lon="-1.29842">
        <ele>50</ele>
        <time>2018-02-24T15:09:18Z</time>
      </trkpt>
      <trkpt lat="47.52254" lon="-1.29848">
        <ele>49</ele>
        <time>2018-02-24T15:09:20Z</time>
      </trkpt>
      <trkpt lat="47.52284" lon="-1.29875">
        <ele>50</ele>
        <time>2018-02-24T15:09:30Z</time>
      </trkpt>
      <trkpt lat="47.52309" lon="-1.29899">
        <ele>50</ele>
        <time>2018-02-24T15:09:39Z</time>
      </trkpt>
      <trkpt lat="47.52334" lon="-1.29923">
        <ele>51</ele>
        <time>2018-02-24T15:09:48Z</time>
      </trkpt>
      <trkpt lat="47.52362" lon="-1.29948">
        <ele>51</ele>
        <time>2018-02-24T15:09:58Z</time>
      </trkpt>
      <trkpt lat="47.52366" lon="-1.29958">
        <ele>51</ele>
        <time>2018-02-24T15:10:01Z</time>
      </trkpt>
      <trkpt lat="47.52363" lon="-1.29962">
        <ele>51</ele>
        <time>2018-02-24T15:10:02Z</time>
      </trkpt>
      <trkpt lat="47.52362" lon="-1.29965">
        <ele>51</ele>
        <time>2018-02-24T15:10:03Z</time>
      </trkpt>
      <trkpt lat="47.52352" lon="-1.29989">
        <ele>52</ele>
        <time>2018-02-24T15:10:09Z</time>
      </trkpt>
      <trkpt lat="47.52345" lon="-1.30006">
        <ele>52</ele>
        <time>2018-02-24T15:10:13Z</time>
      </trkpt>
      <trkpt lat="47.52339" lon="-1.30017">
        <ele>52</ele>
        <time>2018-02-24T15:10:16Z</time>
      </trkpt>
      <trkpt lat="47.52321" lon="-1.30041">
        <ele>52</ele>
        <time>2018-02-24T15:10:23Z</time>
      </trkpt>
      <trkpt lat="47.52302" lon="-1.30064">
        <ele>53</ele>
        <time>2018-02-24T15:10:30Z</time>
      </trkpt>
      <trkpt lat="47.52295" lon="-1.30073">
        <ele>53</ele>
        <time>2018-02-24T15:10:33Z</time>
      </trkpt>
      <trkpt lat="47.52284" lon="-1.30087">
        <ele>53</ele>
        <time>2018-02-24T15:13:09Z</time>
      </trkpt>
      <trkpt lat="47.52276" lon="-1.30088">
        <ele>53</ele>
        <time>2018-02-24T15:13:12Z</time>
      </trkpt>
      <trkpt lat="47.52255" lon="-1.30087">
        <ele>53</ele>
        <time>2018-02-24T15:13:18Z</time>
      </trkpt>
      <trkpt lat="47.52253" lon="-1.30092">
        <ele>53</ele>
        <time>2018-02-24T15:13:19Z</time>
      </trkpt>
      <trkpt lat="47.52257" lon="-1.30106">
        <ele>53</ele>
        <time>2018-02-24T15:13:22Z</time>
      </trkpt>
      <trkpt lat="47.52268" lon="-1.3012">
        <ele>54</ele>
        <time>2018-02-24T15:13:26Z</time>
      </trkpt>
      <trkpt lat="47.52274" lon="-1.30128">
        <ele>54</ele>
        <time>2018-02-24T15:13:28Z</time>
      </trkpt>
      <trkpt lat="47.52285" lon="-1.30143">
        <ele>54</ele>
        <time>2018-02-24T15:13:32Z</time>
      </trkpt>
      <trkpt lat="47.52306" lon="-1.30169">
        <ele>54</ele>
        <time>2018-02-24T15:13:39Z</time>
      </trkpt>
      <trkpt lat="47.52328" lon="-1.30196">
        <ele>53</ele>
        <time>2018-02-24T15:13:46Z</time>
      </trkpt>
      <trkpt lat="47.52344" lon="-1.30214">
        <ele>53</ele>
        <time>2018-02-24T15:13:51Z</time>
      </trkpt>
      <trkpt lat="47.5235" lon="-1.30221">
        <ele>53</ele>
        <time>2018-02-24T15:13:53Z</time>
      </trkpt>
      <trkpt lat="47.5237" lon="-1.30243">
        <ele>52</ele>
        <time>2018-02-24T15:14:00Z</time>
      </trkpt>
      <trkpt lat="47.52388" lon="-1.30266">
        <ele>52</ele>
        <time>2018-02-24T15:14:07Z</time>
      </trkpt>
      <trkpt lat="47.52398" lon="-1.30279">
        <ele>52</ele>
        <time>2018-02-24T15:14:11Z</time>
      </trkpt>
      <trkpt lat="47.52411" lon="-1.30295">
        <ele>52</ele>
        <time>2018-02-24T15:14:16Z</time>
      </trkpt>
      <trkpt lat="47.52416" lon="-1.303">
        <ele>52</ele>
        <time>2018-02-24T15:14:18Z</time>
      </trkpt>
      <trkpt lat="47.52425" lon="-1.30313">
        <ele>52</ele>
        <time>2018-02-24T15:14:22Z</time>
      </trkpt>
      <trkpt lat="47.52442" lon="-1.30332">
        <ele>51</ele>
        <time>2018-02-24T15:14:29Z</time>
      </trkpt>
      <trkpt lat="47.5246" lon="-1.30357">
        <ele>51</ele>
        <time>2018-02-24T15:14:36Z</time>
      </trkpt>
      <trkpt lat="47.52493" lon="-1.304">
        <ele>50</ele>
        <time>2018-02-24T15:14:48Z</time>
      </trkpt>
      <trkpt lat="47.52505" lon="-1.30415">
        <ele>50</ele>
        <time>2018-02-24T15:14:52Z</time>
      </trkpt>
      <trkpt lat="47.52519" lon="-1.30433">
        <ele>49</ele>
        <time>2018-02-24T15:14:57Z</time>
      </trkpt>
      <trkpt lat="47.52542" lon="-1.30461">
        <ele>49</ele>
        <time>2018-02-24T15:15:05Z</time>
      </trkpt>
      <trkpt lat="47.5256" lon="-1.30479">
        <ele>49</ele>
        <time>2018-02-24T15:15:11Z</time>
      </trkpt>
      <trkpt lat="47.52571" lon="-1.3049">
        <ele>48</ele>
        <time>2018-02-24T15:15:15Z</time>
      </trkpt>
      <trkpt lat="47.52587" lon="-1.30504">
        <ele>48</ele>
        <time>2018-02-24T15:15:20Z</time>
      </trkpt>
      <trkpt lat="47.52599" lon="-1.30516">
        <ele>47</ele>
        <time>2018-02-24T15:15:24Z</time>
      </trkpt>
      <trkpt lat="47.52615" lon="-1.3053">
        <ele>47</ele>
        <time>2018-02-24T15:15:30Z</time>
      </trkpt>
      <trkpt lat="47.52619" lon="-1.30533">
        <ele>47</ele>
        <time>2018-02-24T15:15:32Z</time>
      </trkpt>
      <trkpt lat="47.52631" lon="-1.30543">
        <ele>46</ele>
        <time>2018-02-24T15:15:37Z</time>
      </trkpt>
      <trkpt lat="47.52647" lon="-1.30558">
        <ele>46</ele>
        <time>2018-02-24T15:15:43Z</time>
      </trkpt>
      <trkpt lat="47.52655" lon="-1.30567">
        <ele>45</ele>
        <time>2018-02-24T15:15:46Z</time>
      </trkpt>
      <trkpt lat="47.52671" lon="-1.30585">
        <ele>45</ele>
        <time>2018-02-24T15:15:52Z</time>
      </trkpt>
      <trkpt lat="47.52685" lon="-1.30599">
        <ele>45</ele>
        <time>2018-02-24T15:15:58Z</time>
      </trkpt>
      <trkpt lat="47.52688" lon="-1.30602">
        <ele>45</ele>
        <time>2018-02-24T15:16:01Z</time>
      </trkpt>
      <trkpt lat="47.52692" lon="-1.30604">
        <ele>45</ele>
        <time>2018-02-24T15:16:04Z</time>
      </trkpt>
      <trkpt lat="47.52693" lon="-1.30605">
        <ele>45</ele>
        <time>2018-02-24T15:16:09Z</time>
      </trkpt>
      <trkpt lat="47.52694" lon="-1.30606">
        <ele>45</ele>
        <time>2018-02-24T15:16:10Z</time>
      </trkpt>
      <trkpt lat="47.52699" lon="-1.30609">
        <ele>45</ele>
        <time>2018-02-24T15:16:14Z</time>
      </trkpt>
      <trkpt lat="47.527" lon="-1.3061">
        <ele>45</ele>
        <time>2018-02-24T15:16:15Z</time>
      </trkpt>
      <trkpt lat="47.52707" lon="-1.30617">
        <ele>46</ele>
        <time>2018-02-24T15:16:24Z</time>
      </trkpt>
      <trkpt lat="47.52714" lon="-1.30622">
        <ele>46</ele>
        <time>2018-02-24T15:16:27Z</time>
      </trkpt>
      <trkpt lat="47.52735" lon="-1.3063">
        <ele>46</ele>
        <time>2018-02-24T15:16:34Z</time>
      </trkpt>
      <trkpt lat="47.5274" lon="-1.30632">
        <ele>47</ele>
        <time>2018-02-24T15:16:36Z</time>
      </trkpt>
      <trkpt lat="47.52751" lon="-1.30636">
        <ele>47</ele>
        <time>2018-02-24T15:16:40Z</time>
      </trkpt>
      <trkpt lat="47.52762" lon="-1.30639">
        <ele>47</ele>
        <time>2018-02-24T15:16:45Z</time>
      </trkpt>
      <trkpt lat="47.52777" lon="-1.30644">
        <ele>47</ele>
        <time>2018-02-24T15:16:51Z</time>
      </trkpt>
      <trkpt lat="47.52786" lon="-1.30646">
        <ele>48</ele>
        <time>2018-02-24T15:16:54Z</time>
      </trkpt>
      <trkpt lat="47.52797" lon="-1.3065">
        <ele>48</ele>
        <time>2018-02-24T15:16:58Z</time>
      </trkpt>
      <trkpt lat="47.52816" lon="-1.30656">
        <ele>48</ele>
        <time>2018-02-24T15:17:05Z</time>
      </trkpt>
      <trkpt lat="47.52826" lon="-1.3066">
        <ele>49</ele>
        <time>2018-02-24T15:17:22Z</time>
      </trkpt>
      <trkpt lat="47.52833" lon="-1.30663">
        <ele>49</ele>
        <time>2018-02-24T15:17:25Z</time>
      </trkpt>
      <trkpt lat="47.52856" lon="-1.30679">
        <ele>49</ele>
        <time>2018-02-24T15:17:32Z</time>
      </trkpt>
      <trkpt lat="47.52878" lon="-1.30695">
        <ele>49</ele>
        <time>2018-02-24T15:17:39Z</time>
      </trkpt>
      <trkpt lat="47.52897" lon="-1.3071">
        <ele>49</ele>
        <time>2018-02-24T15:17:45Z</time>
      </trkpt>
      <trkpt lat="47.52918" lon="-1.30728">
        <ele>49</ele>
        <time>2018-02-24T15:17:52Z</time>
      </trkpt>
      <trkpt lat="47.52949" lon="-1.30754">
        <ele>48</ele>
        <time>2018-02-24T15:18:01Z</time>
      </trkpt>
      <trkpt lat="47.5298" lon="-1.30779">
        <ele>47</ele>
        <time>2018-02-24T15:18:10Z</time>
      </trkpt>
      <trkpt lat="47.5299" lon="-1.30786">
        <ele>47</ele>
        <time>2018-02-24T15:18:14Z</time>
      </trkpt>
      <trkpt lat="47.52994" lon="-1.30785">
        <ele>46</ele>
        <time>2018-02-24T15:19:37Z</time>
      </trkpt>
      <trkpt lat="47.52996" lon="-1.30784">
        <ele>46</ele>
        <time>2018-02-24T15:19:38Z</time>
      </trkpt>
      <trkpt lat="47.53007" lon="-1.3077">
        <ele>46</ele>
        <time>2018-02-24T15:19:44Z</time>
      </trkpt>
      <trkpt lat="47.53027" lon="-1.30749">
        <ele>46</ele>
        <time>2018-02-24T15:19:51Z</time>
      </trkpt>
      <trkpt lat="47.53051" lon="-1.3073">
        <ele>47</ele>
        <time>2018-02-24T15:19:58Z</time>
      </trkpt>
      <trkpt lat="47.53075" lon="-1.30717">
        <ele>47</ele>
        <time>2018-02-24T15:20:04Z</time>
      </trkpt>
      <trkpt lat="47.53084" lon="-1.30714">
        <ele>47</ele>
        <time>2018-02-24T15:20:06Z</time>
      </trkpt>
      <trkpt lat="47.53115" lon="-1.30707">
        <ele>46</ele>
        <time>2018-02-24T15:20:13Z</time>
      </trkpt>
      <trkpt lat="47.53144" lon="-1.30695">
        <ele>46</ele>
        <time>2018-02-24T15:20:21Z</time>
      </trkpt>
      <trkpt lat="47.53161" lon="-1.30685">
        <ele>46</ele>
        <time>2018-02-24T15:20:27Z</time>
      </trkpt>
      <trkpt lat="47.53172" lon="-1.30683">
        <ele>47</ele>
        <time>2018-02-24T15:20:31Z</time>
      </trkpt>
      <trkpt lat="47.53174" lon="-1.30686">
        <ele>47</ele>
        <time>2018-02-24T15:20:32Z</time>
      </trkpt>
      <trkpt lat="47.53182" lon="-1.30698">
        <ele>47</ele>
        <time>2018-02-24T15:20:35Z</time>
      </trkpt>
      <trkpt lat="47.53189" lon="-1.30711">
        <ele>47</ele>
        <time>2018-02-24T15:20:38Z</time>
      </trkpt>
      <trkpt lat="47.53209" lon="-1.30738">
        <ele>46</ele>
        <time>2018-02-24T15:20:46Z</time>
      </trkpt>
      <trkpt lat="47.53221" lon="-1.3075">
        <ele>46</ele>
        <time>2018-02-24T15:20:50Z</time>
      </trkpt>
      <trkpt lat="47.53232" lon="-1.30758">
        <ele>45</ele>
        <time>2018-02-24T15:20:53Z</time>
      </trkpt>
      <trkpt lat="47.53257" lon="-1.30766">
        <ele>45</ele>
        <time>2018-02-24T15:21:00Z</time>
      </trkpt>
      <trkpt lat="47.53268" lon="-1.30768">
        <ele>45</ele>
        <time>2018-02-24T15:21:03Z</time>
      </trkpt>
      <trkpt lat="47.53283" lon="-1.30767">
        <ele>44</ele>
        <time>2018-02-24T15:21:07Z</time>
      </trkpt>
      <trkpt lat="47.53295" lon="-1.30763">
        <ele>44</ele>
        <time>2018-02-24T15:21:10Z</time>
      </trkpt>
      <trkpt lat="47.53303" lon="-1.30764">
        <ele>43</ele>
        <time>2018-02-24T15:21:12Z</time>
      </trkpt>
      <trkpt lat="47.53332" lon="-1.3077">
        <ele>43</ele>
        <time>2018-02-24T15:21:20Z</time>
      </trkpt>
      <trkpt lat="47.53337" lon="-1.30769">
        <ele>42</ele>
        <time>2018-02-24T15:21:21Z</time>
      </trkpt>
      <trkpt lat="47.53346" lon="-1.30762">
        <ele>42</ele>
        <time>2018-02-24T15:21:23Z</time>
      </trkpt>
      <trkpt lat="47.53349" lon="-1.30758">
        <ele>41</ele>
        <time>2018-02-24T15:21:24Z</time>
      </trkpt>
      <trkpt lat="47.53353" lon="-1.30743">
        <ele>41</ele>
        <time>2018-02-24T15:21:27Z</time>
      </trkpt>
      <trkpt lat="47.5336" lon="-1.30729">
        <ele>43</ele>
        <time>2018-02-24T15:21:47Z</time>
      </trkpt>
      <trkpt lat="47.53363" lon="-1.30734">
        <ele>43</ele>
        <time>2018-02-24T15:21:49Z</time>
      </trkpt>
      <trkpt lat="47.53378" lon="-1.30763">
        <ele>43</ele>
        <time>2018-02-24T15:21:56Z</time>
      </trkpt>
      <trkpt lat="47.53391" lon="-1.30784">
        <ele>44</ele>
        <time>2018-02-24T15:22:01Z</time>
      </trkpt>
      <trkpt lat="47.53408" lon="-1.30814">
        <ele>44</ele>
        <time>2018-02-24T15:22:08Z</time>
      </trkpt>
      <trkpt lat="47.53415" lon="-1.30827">
        <ele>44</ele>
        <time>2018-02-24T15:22:11Z</time>
      </trkpt>
      <trkpt lat="47.53425" lon="-1.30846">
        <ele>44</ele>
        <time>2018-02-24T15:22:15Z</time>
      </trkpt>
      <trkpt lat="47.53446" lon="-1.30882">
        <ele>44</ele>
        <time>2018-02-24T15:22:23Z</time>
      </trkpt>
      <trkpt lat="47.53458" lon="-1.30905">
        <ele>44</ele>
        <time>2018-02-24T15:22:29Z</time>
      </trkpt>
      <trkpt lat="47.53459" lon="-1.30916">
        <ele>44</ele>
        <time>2018-02-24T15:22:33Z</time>
      </trkpt>
      <trkpt lat="47.53457" lon="-1.30917">
        <ele>44</ele>
        <time>2018-02-24T15:22:39Z</time>
      </trkpt>
      <trkpt lat="47.53455" lon="-1.30918">
        <ele>44</ele>
        <time>2018-02-24T15:22:40Z</time>
      </trkpt>
      <trkpt lat="47.53445" lon="-1.30931">
        <ele>44</ele>
        <time>2018-02-24T15:22:44Z</time>
      </trkpt>
      <trkpt lat="47.53434" lon="-1.30962">
        <ele>44</ele>
        <time>2018-02-24T15:22:49Z</time>
      </trkpt>
      <trkpt lat="47.53423" lon="-1.31003">
        <ele>45</ele>
        <time>2018-02-24T15:22:55Z</time>
      </trkpt>
      <trkpt lat="47.53419" lon="-1.31026">
        <ele>45</ele>
        <time>2018-02-24T15:23:00Z</time>
      </trkpt>
      <trkpt lat="47.53419" lon="-1.31031">
        <ele>45</ele>
        <time>2018-02-24T15:23:01Z</time>
      </trkpt>
      <trkpt lat="47.53419" lon="-1.31057">
        <ele>46</ele>
        <time>2018-02-24T15:23:07Z</time>
      </trkpt>
      <trkpt lat="47.5342" lon="-1.31069">
        <ele>46</ele>
        <time>2018-02-24T15:23:10Z</time>
      </trkpt>
      <trkpt lat="47.53421" lon="-1.31086">
        <ele>47</ele>
        <time>2018-02-24T15:23:14Z</time>
      </trkpt>
      <trkpt lat="47.53423" lon="-1.31108">
        <ele>47</ele>
        <time>2018-02-24T15:23:19Z</time>
      </trkpt>
      <trkpt lat="47.53424" lon="-1.31115">
        <ele>48</ele>
        <time>2018-02-24T15:23:21Z</time>
      </trkpt>
      <trkpt lat="47.53426" lon="-1.31135">
        <ele>48</ele>
        <time>2018-02-24T15:23:26Z</time>
      </trkpt>
      <trkpt lat="47.53429" lon="-1.31152">
        <ele>48</ele>
        <time>2018-02-24T15:23:29Z</time>
      </trkpt>
      <trkpt lat="47.53434" lon="-1.31174">
        <ele>49</ele>
        <time>2018-02-24T15:23:33Z</time>
      </trkpt>
      <trkpt lat="47.53438" lon="-1.31202">
        <ele>49</ele>
        <time>2018-02-24T15:23:38Z</time>
      </trkpt>
      <trkpt lat="47.5344" lon="-1.31213">
        <ele>50</ele>
        <time>2018-02-24T15:23:40Z</time>
      </trkpt>
      <trkpt lat="47.53444" lon="-1.31241">
        <ele>51</ele>
        <time>2018-02-24T15:23:45Z</time>
      </trkpt>
      <trkpt lat="47.53449" lon="-1.31268">
        <ele>51</ele>
        <time>2018-02-24T15:23:50Z</time>
      </trkpt>
      <trkpt lat="47.53456" lon="-1.31314">
        <ele>51</ele>
        <time>2018-02-24T15:23:58Z</time>
      </trkpt>
      <trkpt lat="47.53464" lon="-1.31352">
        <ele>52</ele>
        <time>2018-02-24T15:24:05Z</time>
      </trkpt>
      <trkpt lat="47.53472" lon="-1.31405">
        <ele>52</ele>
        <time>2018-02-24T15:24:14Z</time>
      </trkpt>
      <trkpt lat="47.5348" lon="-1.31452">
        <ele>52</ele>
        <time>2018-02-24T15:24:22Z</time>
      </trkpt>
      <trkpt lat="47.5349" lon="-1.31509">
        <ele>51</ele>
        <time>2018-02-24T15:24:32Z</time>
      </trkpt>
      <trkpt lat="47.53497" lon="-1.3155">
        <ele>51</ele>
        <time>2018-02-24T15:24:40Z</time>
      </trkpt>
      <trkpt lat="47.53498" lon="-1.31555">
        <ele>50</ele>
        <time>2018-02-24T15:24:41Z</time>
      </trkpt>
      <trkpt lat="47.53504" lon="-1.31585">
        <ele>50</ele>
        <time>2018-02-24T15:24:48Z</time>
      </trkpt>
      <trkpt lat="47.53503" lon="-1.3159">
        <ele>50</ele>
        <time>2018-02-24T15:24:50Z</time>
      </trkpt>
      <trkpt lat="47.535" lon="-1.31593">
        <ele>50</ele>
        <time>2018-02-24T15:24:52Z</time>
      </trkpt>
      <trkpt lat="47.53485" lon="-1.31602">
        <ele>50</ele>
        <time>2018-02-24T15:24:57Z</time>
      </trkpt>
      <trkpt lat="47.53482" lon="-1.31604">
        <ele>49</ele>
        <time>2018-02-24T15:24:58Z</time>
      </trkpt>
      <trkpt lat="47.53461" lon="-1.3162">
        <ele>49</ele>
        <time>2018-02-24T15:25:05Z</time>
      </trkpt>
      <trkpt lat="47.53445" lon="-1.31631">
        <ele>48</ele>
        <time>2018-02-24T15:25:10Z</time>
      </trkpt>
      <trkpt lat="47.53435" lon="-1.31638">
        <ele>48</ele>
        <time>2018-02-24T15:25:13Z</time>
      </trkpt>
      <trkpt lat="47.53407" lon="-1.31657">
        <ele>47</ele>
        <time>2018-02-24T15:25:22Z</time>
      </trkpt>
      <trkpt lat="47.53405" lon="-1.31659">
        <ele>47</ele>
        <time>2018-02-24T15:25:23Z</time>
      </trkpt>
      <trkpt lat="47.53389" lon="-1.31673">
        <ele>46</ele>
        <time>2018-02-24T15:25:29Z</time>
      </trkpt>
      <trkpt lat="47.53384" lon="-1.31683">
        <ele>46</ele>
        <time>2018-02-24T15:25:32Z</time>
      </trkpt>
      <trkpt lat="47.53378" lon="-1.31705">
        <ele>46</ele>
        <time>2018-02-24T15:25:38Z</time>
      </trkpt>
      <trkpt lat="47.53371" lon="-1.31737">
        <ele>46</ele>
        <time>2018-02-24T15:25:46Z</time>
      </trkpt>
      <trkpt lat="47.53366" lon="-1.31762">
        <ele>45</ele>
        <time>2018-02-24T15:25:52Z</time>
      </trkpt>
      <trkpt lat="47.53365" lon="-1.31767">
        <ele>45</ele>
        <time>2018-02-24T15:25:53Z</time>
      </trkpt>
      <trkpt lat="47.53359" lon="-1.31806">
        <ele>45</ele>
        <time>2018-02-24T15:26:02Z</time>
      </trkpt>
      <trkpt lat="47.53353" lon="-1.31838">
        <ele>45</ele>
        <time>2018-02-24T15:26:10Z</time>
      </trkpt>
      <trkpt lat="47.53352" lon="-1.31868">
        <ele>45</ele>
        <time>2018-02-24T15:26:18Z</time>
      </trkpt>
      <trkpt lat="47.53359" lon="-1.31885">
        <ele>44</ele>
        <time>2018-02-24T15:26:24Z</time>
      </trkpt>
      <trkpt lat="47.53364" lon="-1.31903">
        <ele>44</ele>
        <time>2018-02-24T15:26:29Z</time>
      </trkpt>
      <trkpt lat="47.5337" lon="-1.31927">
        <ele>44</ele>
        <time>2018-02-24T15:26:36Z</time>
      </trkpt>
      <trkpt lat="47.53375" lon="-1.31947">
        <ele>44</ele>
        <time>2018-02-24T15:26:42Z</time>
      </trkpt>
      <trkpt lat="47.53376" lon="-1.3195">
        <ele>44</ele>
        <time>2018-02-24T15:26:43Z</time>
      </trkpt>
      <trkpt lat="47.53379" lon="-1.31968">
        <ele>44</ele>
        <time>2018-02-24T15:26:49Z</time>
      </trkpt>
      <trkpt lat="47.5338" lon="-1.31994">
        <ele>44</ele>
        <time>2018-02-24T15:26:57Z</time>
      </trkpt>
      <trkpt lat="47.53379" lon="-1.32023">
        <ele>43</ele>
        <time>2018-02-24T15:27:05Z</time>
      </trkpt>
      <trkpt lat="47.53378" lon="-1.32031">
        <ele>43</ele>
        <time>2018-02-24T15:27:08Z</time>
      </trkpt>
      <trkpt lat="47.53378" lon="-1.32037">
        <ele>43</ele>
        <time>2018-02-24T15:27:10Z</time>
      </trkpt>
      <trkpt lat="47.53377" lon="-1.32064">
        <ele>42</ele>
        <time>2018-02-24T15:27:16Z</time>
      </trkpt>
      <trkpt lat="47.53376" lon="-1.32094">
        <ele>42</ele>
        <time>2018-02-24T15:27:23Z</time>
      </trkpt>
      <trkpt lat="47.53373" lon="-1.32127">
        <ele>41</ele>
        <time>2018-02-24T15:27:31Z</time>
      </trkpt>
      <trkpt lat="47.53373" lon="-1.32134">
        <ele>41</ele>
        <time>2018-02-24T15:27:34Z</time>
      </trkpt>
      <trkpt lat="47.53373" lon="-1.32141">
        <ele>41</ele>
        <time>2018-02-24T15:27:37Z</time>
      </trkpt>
      <trkpt lat="47.53372" lon="-1.32158">
        <ele>40</ele>
        <time>2018-02-24T15:27:42Z</time>
      </trkpt>
      <trkpt lat="47.53369" lon="-1.32181">
        <ele>40</ele>
        <time>2018-02-24T15:27:49Z</time>
      </trkpt>
      <trkpt lat="47.53368" lon="-1.32185">
        <ele>40</ele>
        <time>2018-02-24T15:27:50Z</time>
      </trkpt>
      <trkpt lat="47.53364" lon="-1.32212">
        <ele>39</ele>
        <time>2018-02-24T15:27:56Z</time>
      </trkpt>
      <trkpt lat="47.53362" lon="-1.3222">
        <ele>39</ele>
        <time>2018-02-24T15:27:58Z</time>
      </trkpt>
      <trkpt lat="47.53359" lon="-1.32238">
        <ele>38</ele>
        <time>2018-02-24T15:28:03Z</time>
      </trkpt>
      <trkpt lat="47.53354" lon="-1.32264">
        <ele>38</ele>
        <time>2018-02-24T15:28:08Z</time>
      </trkpt>
      <trkpt lat="47.53351" lon="-1.3228">
        <ele>38</ele>
        <time>2018-02-24T15:28:11Z</time>
      </trkpt>
      <trkpt lat="47.53347" lon="-1.32298">
        <ele>37</ele>
        <time>2018-02-24T15:28:14Z</time>
      </trkpt>
      <trkpt lat="47.53343" lon="-1.32318">
        <ele>37</ele>
        <time>2018-02-24T15:28:17Z</time>
      </trkpt>
      <trkpt lat="47.5334" lon="-1.32324">
        <ele>37</ele>
        <time>2018-02-24T15:28:18Z</time>
      </trkpt>
      <trkpt lat="47.53334" lon="-1.32335">
        <ele>36</ele>
        <time>2018-02-24T15:28:20Z</time>
      </trkpt>
      <trkpt lat="47.53317" lon="-1.32343">
        <ele>35</ele>
        <time>2018-02-24T15:28:24Z</time>
      </trkpt>
      <trkpt lat="47.53313" lon="-1.32343">
        <ele>35</ele>
        <time>2018-02-24T15:28:25Z</time>
      </trkpt>
      <trkpt lat="47.53295" lon="-1.32346">
        <ele>35</ele>
        <time>2018-02-24T15:28:30Z</time>
      </trkpt>
      <trkpt lat="47.53269" lon="-1.32353">
        <ele>35</ele>
        <time>2018-02-24T15:28:37Z</time>
      </trkpt>
      <trkpt lat="47.53247" lon="-1.32357">
        <ele>35</ele>
        <time>2018-02-24T15:28:43Z</time>
      </trkpt>
      <trkpt lat="47.53243" lon="-1.32359">
        <ele>34</ele>
        <time>2018-02-24T15:28:44Z</time>
      </trkpt>
      <trkpt lat="47.53226" lon="-1.32364">
        <ele>34</ele>
        <time>2018-02-24T15:28:49Z</time>
      </trkpt>
      <trkpt lat="47.53205" lon="-1.32367">
        <ele>34</ele>
        <time>2018-02-24T15:28:55Z</time>
      </trkpt>
      <trkpt lat="47.53186" lon="-1.32371">
        <ele>35</ele>
        <time>2018-02-24T15:29:01Z</time>
      </trkpt>
      <trkpt lat="47.53167" lon="-1.32373">
        <ele>35</ele>
        <time>2018-02-24T15:29:07Z</time>
      </trkpt>
      <trkpt lat="47.53164" lon="-1.32374">
        <ele>36</ele>
        <time>2018-02-24T15:29:08Z</time>
      </trkpt>
      <trkpt lat="47.53141" lon="-1.32378">
        <ele>36</ele>
        <time>2018-02-24T15:29:15Z</time>
      </trkpt>
      <trkpt lat="47.53126" lon="-1.3238">
        <ele>37</ele>
        <time>2018-02-24T15:29:21Z</time>
      </trkpt>
      <trkpt lat="47.53124" lon="-1.32382">
        <ele>37</ele>
        <time>2018-02-24T15:29:22Z</time>
      </trkpt>
      <trkpt lat="47.5312" lon="-1.32387">
        <ele>37</ele>
        <time>2018-02-24T15:29:25Z</time>
      </trkpt>
      <trkpt lat="47.5312" lon="-1.32392">
        <ele>37</ele>
        <time>2018-02-24T15:30:50Z</time>
      </trkpt>
      <trkpt lat="47.53121" lon="-1.32399">
        <ele>37</ele>
        <time>2018-02-24T15:30:53Z</time>
      </trkpt>
      <trkpt lat="47.53121" lon="-1.32418">
        <ele>37</ele>
        <time>2018-02-24T15:30:58Z</time>
      </trkpt>
      <trkpt lat="47.5312" lon="-1.32447">
        <ele>36</ele>
        <time>2018-02-24T15:31:03Z</time>
      </trkpt>
      <trkpt lat="47.53119" lon="-1.32453">
        <ele>36</ele>
        <time>2018-02-24T15:31:04Z</time>
      </trkpt>
      <trkpt lat="47.53108" lon="-1.32475">
        <ele>36</ele>
        <time>2018-02-24T15:31:08Z</time>
      </trkpt>
      <trkpt lat="47.531" lon="-1.32482">
        <ele>36</ele>
        <time>2018-02-24T15:31:10Z</time>
      </trkpt>
      <trkpt lat="47.5309" lon="-1.32487">
        <ele>35</ele>
        <time>2018-02-24T15:31:13Z</time>
      </trkpt>
      <trkpt lat="47.5308" lon="-1.3249">
        <ele>35</ele>
        <time>2018-02-24T15:31:17Z</time>
      </trkpt>
      <trkpt lat="47.53071" lon="-1.32495">
        <ele>35</ele>
        <time>2018-02-24T15:31:21Z</time>
      </trkpt>
      <trkpt lat="47.53069" lon="-1.32497">
        <ele>34</ele>
        <time>2018-02-24T15:31:22Z</time>
      </trkpt>
      <trkpt lat="47.5306" lon="-1.32504">
        <ele>34</ele>
        <time>2018-02-24T15:31:28Z</time>
      </trkpt>
      <trkpt lat="47.53055" lon="-1.32508">
        <ele>34</ele>
        <time>2018-02-24T15:32:29Z</time>
      </trkpt>
      <trkpt lat="47.53053" lon="-1.32509">
        <ele>34</ele>
        <time>2018-02-24T15:32:30Z</time>
      </trkpt>
      <trkpt lat="47.5304" lon="-1.32515">
        <ele>33</ele>
        <time>2018-02-24T15:32:36Z</time>
      </trkpt>
      <trkpt lat="47.53025" lon="-1.32522">
        <ele>33</ele>
        <time>2018-02-24T15:32:42Z</time>
      </trkpt>
      <trkpt lat="47.53017" lon="-1.32528">
        <ele>32</ele>
        <time>2018-02-24T15:32:46Z</time>
      </trkpt>
      <trkpt lat="47.53015" lon="-1.32534">
        <ele>32</ele>
        <time>2018-02-24T15:32:48Z</time>
      </trkpt>
      <trkpt lat="47.53008" lon="-1.32545">
        <ele>32</ele>
        <time>2018-02-24T15:32:52Z</time>
      </trkpt>
      <trkpt lat="47.52996" lon="-1.32567">
        <ele>32</ele>
        <time>2018-02-24T15:32:59Z</time>
      </trkpt>
      <trkpt lat="47.52983" lon="-1.32594">
        <ele>32</ele>
        <time>2018-02-24T15:33:05Z</time>
      </trkpt>
      <trkpt lat="47.52979" lon="-1.32609">
        <ele>32</ele>
        <time>2018-02-24T15:33:09Z</time>
      </trkpt>
      <trkpt lat="47.52975" lon="-1.32642">
        <ele>32</ele>
        <time>2018-02-24T15:33:16Z</time>
      </trkpt>
      <trkpt lat="47.52974" lon="-1.32674">
        <ele>32</ele>
        <time>2018-02-24T15:33:22Z</time>
      </trkpt>
      <trkpt lat="47.52974" lon="-1.32699">
        <ele>32</ele>
        <time>2018-02-24T15:33:28Z</time>
      </trkpt>
      <trkpt lat="47.5297" lon="-1.32728">
        <ele>32</ele>
        <time>2018-02-24T15:33:34Z</time>
      </trkpt>
      <trkpt lat="47.52962" lon="-1.32761">
        <ele>32</ele>
        <time>2018-02-24T15:33:40Z</time>
      </trkpt>
      <trkpt lat="47.52956" lon="-1.32785">
        <ele>32</ele>
        <time>2018-02-24T15:33:45Z</time>
      </trkpt>
      <trkpt lat="47.52951" lon="-1.32816">
        <ele>32</ele>
        <time>2018-02-24T15:33:51Z</time>
      </trkpt>
      <trkpt lat="47.52941" lon="-1.3285">
        <ele>32</ele>
        <time>2018-02-24T15:33:58Z</time>
      </trkpt>
      <trkpt lat="47.52934" lon="-1.32869">
        <ele>32</ele>
        <time>2018-02-24T15:34:03Z</time>
      </trkpt>
      <trkpt lat="47.52927" lon="-1.32893">
        <ele>31</ele>
        <time>2018-02-24T15:34:11Z</time>
      </trkpt>
      <trkpt lat="47.52923" lon="-1.32918">
        <ele>31</ele>
        <time>2018-02-24T15:34:18Z</time>
      </trkpt>
      <trkpt lat="47.52917" lon="-1.32942">
        <ele>32</ele>
        <time>2018-02-24T15:34:24Z</time>
      </trkpt>
      <trkpt lat="47.52912" lon="-1.3296">
        <ele>32</ele>
        <time>2018-02-24T15:34:29Z</time>
      </trkpt>
      <trkpt lat="47.52904" lon="-1.32977">
        <ele>31</ele>
        <time>2018-02-24T15:34:35Z</time>
      </trkpt>
      <trkpt lat="47.52899" lon="-1.3299">
        <ele>31</ele>
        <time>2018-02-24T15:34:47Z</time>
      </trkpt>
      <trkpt lat="47.52897" lon="-1.32997">
        <ele>31</ele>
        <time>2018-02-24T15:34:50Z</time>
      </trkpt>
      <trkpt lat="47.52896" lon="-1.3301">
        <ele>32</ele>
        <time>2018-02-24T15:35:05Z</time>
      </trkpt>
      <trkpt lat="47.52897" lon="-1.33013">
        <ele>32</ele>
        <time>2018-02-24T15:35:06Z</time>
      </trkpt>
      <trkpt lat="47.52905" lon="-1.33036">
        <ele>32</ele>
        <time>2018-02-24T15:35:12Z</time>
      </trkpt>
      <trkpt lat="47.52917" lon="-1.33065">
        <ele>33</ele>
        <time>2018-02-24T15:35:20Z</time>
      </trkpt>
      <trkpt lat="47.52928" lon="-1.33089">
        <ele>33</ele>
        <time>2018-02-24T15:35:27Z</time>
      </trkpt>
      <trkpt lat="47.52928" lon="-1.33101">
        <ele>33</ele>
        <time>2018-02-24T15:35:30Z</time>
      </trkpt>
      <trkpt lat="47.52926" lon="-1.33105">
        <ele>33</ele>
        <time>2018-02-24T15:35:31Z</time>
      </trkpt>
      <trkpt lat="47.52921" lon="-1.33122">
        <ele>33</ele>
        <time>2018-02-24T15:35:35Z</time>
      </trkpt>
      <trkpt lat="47.52919" lon="-1.33142">
        <ele>32</ele>
        <time>2018-02-24T15:35:40Z</time>
      </trkpt>
      <trkpt lat="47.52922" lon="-1.33167">
        <ele>33</ele>
        <time>2018-02-24T15:35:46Z</time>
      </trkpt>
      <trkpt lat="47.52921" lon="-1.33198">
        <ele>33</ele>
        <time>2018-02-24T15:35:53Z</time>
      </trkpt>
      <trkpt lat="47.52918" lon="-1.33219">
        <ele>33</ele>
        <time>2018-02-24T15:35:58Z</time>
      </trkpt>
      <trkpt lat="47.52916" lon="-1.33229">
        <ele>33</ele>
        <time>2018-02-24T15:36:00Z</time>
      </trkpt>
      <trkpt lat="47.52911" lon="-1.33265">
        <ele>33</ele>
        <time>2018-02-24T15:36:07Z</time>
      </trkpt>
      <trkpt lat="47.52906" lon="-1.33291">
        <ele>33</ele>
        <time>2018-02-24T15:36:13Z</time>
      </trkpt>
      <trkpt lat="47.52906" lon="-1.33302">
        <ele>33</ele>
        <time>2018-02-24T15:36:17Z</time>
      </trkpt>
      <trkpt lat="47.52908" lon="-1.33304">
        <ele>33</ele>
        <time>2018-02-24T15:36:18Z</time>
      </trkpt>
      <trkpt lat="47.52916" lon="-1.3331">
        <ele>33</ele>
        <time>2018-02-24T15:36:22Z</time>
      </trkpt>
      <trkpt lat="47.52927" lon="-1.33314">
        <ele>34</ele>
        <time>2018-02-24T15:36:26Z</time>
      </trkpt>
      <trkpt lat="47.52947" lon="-1.33323">
        <ele>34</ele>
        <time>2018-02-24T15:36:33Z</time>
      </trkpt>
      <trkpt lat="47.5296" lon="-1.33329">
        <ele>34</ele>
        <time>2018-02-24T15:36:37Z</time>
      </trkpt>
      <trkpt lat="47.52972" lon="-1.33334">
        <ele>35</ele>
        <time>2018-02-24T15:36:41Z</time>
      </trkpt>
      <trkpt lat="47.52992" lon="-1.33342">
        <ele>35</ele>
        <time>2018-02-24T15:36:48Z</time>
      </trkpt>
      <trkpt lat="47.53004" lon="-1.33347">
        <ele>35</ele>
        <time>2018-02-24T15:36:52Z</time>
      </trkpt>
      <trkpt lat="47.53016" lon="-1.3335">
        <ele>36</ele>
        <time>2018-02-24T15:36:56Z</time>
      </trkpt>
      <trkpt lat="47.53031" lon="-1.33354">
        <ele>37</ele>
        <time>2018-02-24T15:37:01Z</time>
      </trkpt>
      <trkpt lat="47.53042" lon="-1.33358">
        <ele>37</ele>
        <time>2018-02-24T15:37:05Z</time>
      </trkpt>
      <trkpt lat="47.5305" lon="-1.33361">
        <ele>38</ele>
        <time>2018-02-24T15:37:08Z</time>
      </trkpt>
      <trkpt lat="47.53063" lon="-1.33365">
        <ele>38</ele>
        <time>2018-02-24T15:37:13Z</time>
      </trkpt>
      <trkpt lat="47.53068" lon="-1.33366">
        <ele>39</ele>
        <time>2018-02-24T15:37:15Z</time>
      </trkpt>
      <trkpt lat="47.53078" lon="-1.33367">
        <ele>39</ele>
        <time>2018-02-24T15:37:19Z</time>
      </trkpt>
      <trkpt lat="47.53083" lon="-1.33368">
        <ele>40</ele>
        <time>2018-02-24T15:37:21Z</time>
      </trkpt>
      <trkpt lat="47.53096" lon="-1.33365">
        <ele>41</ele>
        <time>2018-02-24T15:37:26Z</time>
      </trkpt>
      <trkpt lat="47.53098" lon="-1.33364">
        <ele>41</ele>
        <time>2018-02-24T15:37:27Z</time>
      </trkpt>
      <trkpt lat="47.53106" lon="-1.3336">
        <ele>42</ele>
        <time>2018-02-24T15:37:31Z</time>
      </trkpt>
      <trkpt lat="47.53113" lon="-1.33355">
        <ele>43</ele>
        <time>2018-02-24T15:37:35Z</time>
      </trkpt>
      <trkpt lat="47.53117" lon="-1.33355">
        <ele>43</ele>
        <time>2018-02-24T15:39:12Z</time>
      </trkpt>
      <trkpt lat="47.5312" lon="-1.33355">
        <ele>43</ele>
        <time>2018-02-24T15:39:14Z</time>
      </trkpt>
      <trkpt lat="47.53125" lon="-1.33357">
        <ele>43</ele>
        <time>2018-02-24T15:39:16Z</time>
      </trkpt>
      <trkpt lat="47.5313" lon="-1.33361">
        <ele>43</ele>
        <time>2018-02-24T15:39:18Z</time>
      </trkpt>
      <trkpt lat="47.5314" lon="-1.33371">
        <ele>43</ele>
        <time>2018-02-24T15:39:22Z</time>
      </trkpt>
      <trkpt lat="47.53149" lon="-1.33383">
        <ele>43</ele>
        <time>2018-02-24T15:39:26Z</time>
      </trkpt>
      <trkpt lat="47.53165" lon="-1.33405">
        <ele>44</ele>
        <time>2018-02-24T15:39:33Z</time>
      </trkpt>
      <trkpt lat="47.53169" lon="-1.33412">
        <ele>44</ele>
        <time>2018-02-24T15:39:35Z</time>
      </trkpt>
      <trkpt lat="47.53181" lon="-1.33431">
        <ele>45</ele>
        <time>2018-02-24T15:39:41Z</time>
      </trkpt>
      <trkpt lat="47.53187" lon="-1.33442">
        <ele>45</ele>
        <time>2018-02-24T15:39:44Z</time>
      </trkpt>
      <trkpt lat="47.53196" lon="-1.33454">
        <ele>46</ele>
        <time>2018-02-24T15:39:48Z</time>
      </trkpt>
      <trkpt lat="47.5321" lon="-1.33476">
        <ele>46</ele>
        <time>2018-02-24T15:39:55Z</time>
      </trkpt>
      <trkpt lat="47.53213" lon="-1.3348">
        <ele>46</ele>
        <time>2018-02-24T15:39:56Z</time>
      </trkpt>
      <trkpt lat="47.53225" lon="-1.33504">
        <ele>47</ele>
        <time>2018-02-24T15:40:02Z</time>
      </trkpt>
      <trkpt lat="47.53239" lon="-1.3354">
        <ele>47</ele>
        <time>2018-02-24T15:40:10Z</time>
      </trkpt>
      <trkpt lat="47.53247" lon="-1.33563">
        <ele>47</ele>
        <time>2018-02-24T15:40:15Z</time>
      </trkpt>
      <trkpt lat="47.53255" lon="-1.33583">
        <ele>48</ele>
        <time>2018-02-24T15:40:20Z</time>
      </trkpt>
      <trkpt lat="47.53265" lon="-1.3361">
        <ele>48</ele>
        <time>2018-02-24T15:40:27Z</time>
      </trkpt>
      <trkpt lat="47.53266" lon="-1.33615">
        <ele>48</ele>
        <time>2018-02-24T15:40:28Z</time>
      </trkpt>
      <trkpt lat="47.53276" lon="-1.33647">
        <ele>49</ele>
        <time>2018-02-24T15:40:36Z</time>
      </trkpt>
      <trkpt lat="47.53277" lon="-1.33651">
        <ele>49</ele>
        <time>2018-02-24T15:40:37Z</time>
      </trkpt>
      <trkpt lat="47.53286" lon="-1.33685">
        <ele>50</ele>
        <time>2018-02-24T15:40:45Z</time>
      </trkpt>
      <trkpt lat="47.53292" lon="-1.33707">
        <ele>50</ele>
        <time>2018-02-24T15:40:50Z</time>
      </trkpt>
      <trkpt lat="47.53295" lon="-1.33716">
        <ele>51</ele>
        <time>2018-02-24T15:40:52Z</time>
      </trkpt>
      <trkpt lat="47.53309" lon="-1.33753">
        <ele>51</ele>
        <time>2018-02-24T15:41:01Z</time>
      </trkpt>
      <trkpt lat="47.53324" lon="-1.33773">
        <ele>51</ele>
        <time>2018-02-24T15:41:08Z</time>
      </trkpt>
      <trkpt lat="47.53327" lon="-1.33774">
        <ele>51</ele>
        <time>2018-02-24T15:41:09Z</time>
      </trkpt>
      <trkpt lat="47.53349" lon="-1.33786">
        <ele>52</ele>
        <time>2018-02-24T15:41:17Z</time>
      </trkpt>
      <trkpt lat="47.53354" lon="-1.33787">
        <ele>53</ele>
        <time>2018-02-24T15:41:19Z</time>
      </trkpt>
      <trkpt lat="47.53371" lon="-1.33795">
        <ele>53</ele>
        <time>2018-02-24T15:41:25Z</time>
      </trkpt>
      <trkpt lat="47.53384" lon="-1.338">
        <ele>54</ele>
        <time>2018-02-24T15:41:30Z</time>
      </trkpt>
      <trkpt lat="47.53392" lon="-1.33807">
        <ele>54</ele>
        <time>2018-02-24T15:41:34Z</time>
      </trkpt>
      <trkpt lat="47.53394" lon="-1.33817">
        <ele>54</ele>
        <time>2018-02-24T15:41:37Z</time>
      </trkpt>
      <trkpt lat="47.53392" lon="-1.3382">
        <ele>54</ele>
        <time>2018-02-24T15:41:38Z</time>
      </trkpt>
      <trkpt lat="47.53385" lon="-1.33829">
        <ele>55</ele>
        <time>2018-02-24T15:41:41Z</time>
      </trkpt>
      <trkpt lat="47.53381" lon="-1.33835">
        <ele>55</ele>
        <time>2018-02-24T15:41:43Z</time>
      </trkpt>
      <trkpt lat="47.53358" lon="-1.33867">
        <ele>55</ele>
        <time>2018-02-24T15:41:52Z</time>
      </trkpt>
      <trkpt lat="47.53337" lon="-1.33905">
        <ele>54</ele>
        <time>2018-02-24T15:42:01Z</time>
      </trkpt>
      <trkpt lat="47.5332" lon="-1.33953">
        <ele>54</ele>
        <time>2018-02-24T15:42:11Z</time>
      </trkpt>
      <trkpt lat="47.53312" lon="-1.33974">
        <ele>54</ele>
        <time>2018-02-24T15:42:15Z</time>
      </trkpt>
      <trkpt lat="47.53304" lon="-1.33994">
        <ele>53</ele>
        <time>2018-02-24T15:42:19Z</time>
      </trkpt>
      <trkpt lat="47.53289" lon="-1.34032">
        <ele>52</ele>
        <time>2018-02-24T15:42:26Z</time>
      </trkpt>
      <trkpt lat="47.53287" lon="-1.34038">
        <ele>52</ele>
        <time>2018-02-24T15:42:27Z</time>
      </trkpt>
      <trkpt lat="47.53283" lon="-1.34058">
        <ele>52</ele>
        <time>2018-02-24T15:42:30Z</time>
      </trkpt>
      <trkpt lat="47.53282" lon="-1.34073">
        <ele>52</ele>
        <time>2018-02-24T15:42:32Z</time>
      </trkpt>
      <trkpt lat="47.53283" lon="-1.34088">
        <ele>51</ele>
        <time>2018-02-24T15:42:34Z</time>
      </trkpt>
      <trkpt lat="47.53284" lon="-1.34095">
        <ele>51</ele>
        <time>2018-02-24T15:42:35Z</time>
      </trkpt>
      <trkpt lat="47.53286" lon="-1.34111">
        <ele>51</ele>
        <time>2018-02-24T15:42:37Z</time>
      </trkpt>
      <trkpt lat="47.53293" lon="-1.34149">
        <ele>50</ele>
        <time>2018-02-24T15:42:42Z</time>
      </trkpt>
      <trkpt lat="47.53295" lon="-1.34164">
        <ele>50</ele>
        <time>2018-02-24T15:42:44Z</time>
      </trkpt>
      <trkpt lat="47.53305" lon="-1.34211">
        <ele>49</ele>
        <time>2018-02-24T15:42:51Z</time>
      </trkpt>
      <trkpt lat="47.53312" lon="-1.34233">
        <ele>49</ele>
        <time>2018-02-24T15:42:55Z</time>
      </trkpt>
      <trkpt lat="47.53316" lon="-1.34249">
        <ele>49</ele>
        <time>2018-02-24T15:42:58Z</time>
      </trkpt>
      <trkpt lat="47.53326" lon="-1.34295">
        <ele>49</ele>
        <time>2018-02-24T15:43:07Z</time>
      </trkpt>
      <trkpt lat="47.53336" lon="-1.34332">
        <ele>49</ele>
        <time>2018-02-24T15:43:15Z</time>
      </trkpt>
      <trkpt lat="47.53343" lon="-1.3436">
        <ele>49</ele>
        <time>2018-02-24T15:43:22Z</time>
      </trkpt>
      <trkpt lat="47.53342" lon="-1.34387">
        <ele>49</ele>
        <time>2018-02-24T15:43:28Z</time>
      </trkpt>
      <trkpt lat="47.53333" lon="-1.34419">
        <ele>49</ele>
        <time>2018-02-24T15:43:35Z</time>
      </trkpt>
      <trkpt lat="47.5332" lon="-1.3445">
        <ele>49</ele>
        <time>2018-02-24T15:43:43Z</time>
      </trkpt>
      <trkpt lat="47.53307" lon="-1.34475">
        <ele>49</ele>
        <time>2018-02-24T15:43:51Z</time>
      </trkpt>
      <trkpt lat="47.53305" lon="-1.34478">
        <ele>49</ele>
        <time>2018-02-24T15:45:16Z</time>
      </trkpt>
      <trkpt lat="47.53304" lon="-1.34481">
        <ele>49</ele>
        <time>2018-02-24T15:45:17Z</time>
      </trkpt>
      <trkpt lat="47.533" lon="-1.34504">
        <ele>49</ele>
        <time>2018-02-24T15:45:22Z</time>
      </trkpt>
      <trkpt lat="47.53293" lon="-1.34544">
        <ele>49</ele>
        <time>2018-02-24T15:45:30Z</time>
      </trkpt>
      <trkpt lat="47.53287" lon="-1.34596">
        <ele>49</ele>
        <time>2018-02-24T15:45:39Z</time>
      </trkpt>
      <trkpt lat="47.53282" lon="-1.34647">
        <ele>49</ele>
        <time>2018-02-24T15:45:48Z</time>
      </trkpt>
      <trkpt lat="47.53276" lon="-1.34705">
        <ele>49</ele>
        <time>2018-02-24T15:45:58Z</time>
      </trkpt>
      <trkpt lat="47.53279" lon="-1.34753">
        <ele>49</ele>
        <time>2018-02-24T15:46:06Z</time>
      </trkpt>
      <trkpt lat="47.53287" lon="-1.3479">
        <ele>49</ele>
        <time>2018-02-24T15:46:13Z</time>
      </trkpt>
      <trkpt lat="47.533" lon="-1.34807">
        <ele>49</ele>
        <time>2018-02-24T15:46:18Z</time>
      </trkpt>
      <trkpt lat="47.5332" lon="-1.34811">
        <ele>49</ele>
        <time>2018-02-24T15:46:24Z</time>
      </trkpt>
      <trkpt lat="47.53347" lon="-1.34805">
        <ele>50</ele>
        <time>2018-02-24T15:46:32Z</time>
      </trkpt>
      <trkpt lat="47.53351" lon="-1.34804">
        <ele>50</ele>
        <time>2018-02-24T15:46:33Z</time>
      </trkpt>
      <trkpt lat="47.53363" lon="-1.348">
        <ele>51</ele>
        <time>2018-02-24T15:46:37Z</time>
      </trkpt>
      <trkpt lat="47.53378" lon="-1.34797">
        <ele>52</ele>
        <time>2018-02-24T15:46:42Z</time>
      </trkpt>
      <trkpt lat="47.534" lon="-1.3479">
        <ele>52</ele>
        <time>2018-02-24T15:46:49Z</time>
      </trkpt>
      <trkpt lat="47.53431" lon="-1.34783">
        <ele>52</ele>
        <time>2018-02-24T15:46:58Z</time>
      </trkpt>
      <trkpt lat="47.53441" lon="-1.34781">
        <ele>52</ele>
        <time>2018-02-24T15:47:01Z</time>
      </trkpt>
      <trkpt lat="47.53465" lon="-1.34775">
        <ele>53</ele>
        <time>2018-02-24T15:47:08Z</time>
      </trkpt>
      <trkpt lat="47.53499" lon="-1.34765">
        <ele>53</ele>
        <time>2018-02-24T15:47:18Z</time>
      </trkpt>
      <trkpt lat="47.53515" lon="-1.34761">
        <ele>53</ele>
        <time>2018-02-24T15:47:23Z</time>
      </trkpt>
      <trkpt lat="47.53534" lon="-1.34756">
        <ele>54</ele>
        <time>2018-02-24T15:47:29Z</time>
      </trkpt>
      <trkpt lat="47.53562" lon="-1.34748">
        <ele>54</ele>
        <time>2018-02-24T15:47:38Z</time>
      </trkpt>
      <trkpt lat="47.53592" lon="-1.34741">
        <ele>54</ele>
        <time>2018-02-24T15:47:47Z</time>
      </trkpt>
      <trkpt lat="47.5362" lon="-1.34733">
        <ele>54</ele>
        <time>2018-02-24T15:47:56Z</time>
      </trkpt>
      <trkpt lat="47.53642" lon="-1.34727">
        <ele>54</ele>
        <time>2018-02-24T15:48:03Z</time>
      </trkpt>
      <trkpt lat="47.5366" lon="-1.34721">
        <ele>53</ele>
        <time>2018-02-24T15:48:10Z</time>
      </trkpt>
      <trkpt lat="47.53661" lon="-1.34722">
        <ele>53</ele>
        <time>2018-02-24T15:48:11Z</time>
      </trkpt>
      <trkpt lat="47.5366" lon="-1.34727">
        <ele>53</ele>
        <time>2018-02-24T15:48:36Z</time>
      </trkpt>
      <trkpt lat="47.53663" lon="-1.34744">
        <ele>53</ele>
        <time>2018-02-24T15:48:40Z</time>
      </trkpt>
      <trkpt lat="47.53669" lon="-1.34787">
        <ele>52</ele>
        <time>2018-02-24T15:48:48Z</time>
      </trkpt>
      <trkpt lat="47.5367" lon="-1.34792">
        <ele>52</ele>
        <time>2018-02-24T15:48:49Z</time>
      </trkpt>
      <trkpt lat="47.53673" lon="-1.34816">
        <ele>51</ele>
        <time>2018-02-24T15:48:54Z</time>
      </trkpt>
      <trkpt lat="47.53673" lon="-1.34821">
        <ele>51</ele>
        <time>2018-02-24T15:48:55Z</time>
      </trkpt>
      <trkpt lat="47.53676" lon="-1.34843">
        <ele>50</ele>
        <time>2018-02-24T15:49:00Z</time>
      </trkpt>
      <trkpt lat="47.53676" lon="-1.34849">
        <ele>50</ele>
        <time>2018-02-24T15:49:02Z</time>
      </trkpt>
      <trkpt lat="47.53677" lon="-1.34855">
        <ele>50</ele>
        <time>2018-02-24T15:49:04Z</time>
      </trkpt>
      <trkpt lat="47.53678" lon="-1.34867">
        <ele>49</ele>
        <time>2018-02-24T15:49:07Z</time>
      </trkpt>
      <trkpt lat="47.5368" lon="-1.34888">
        <ele>48</ele>
        <time>2018-02-24T15:49:12Z</time>
      </trkpt>
      <trkpt lat="47.53682" lon="-1.34908">
        <ele>48</ele>
        <time>2018-02-24T15:49:18Z</time>
      </trkpt>
      <trkpt lat="47.53684" lon="-1.34927">
        <ele>49</ele>
        <time>2018-02-24T15:49:24Z</time>
      </trkpt>
      <trkpt lat="47.53695" lon="-1.34948">
        <ele>49</ele>
        <time>2018-02-24T15:49:31Z</time>
      </trkpt>
      <trkpt lat="47.53705" lon="-1.34969">
        <ele>49</ele>
        <time>2018-02-24T15:49:37Z</time>
      </trkpt>
      <trkpt lat="47.53707" lon="-1.34971">
        <ele>49</ele>
        <time>2018-02-24T15:49:38Z</time>
      </trkpt>
      <trkpt lat="47.53716" lon="-1.34987">
        <ele>50</ele>
        <time>2018-02-24T15:49:45Z</time>
      </trkpt>
      <trkpt lat="47.53721" lon="-1.34998">
        <ele>50</ele>
        <time>2018-02-24T15:49:51Z</time>
      </trkpt>
      <trkpt lat="47.53727" lon="-1.35008">
        <ele>50</ele>
        <time>2018-02-24T15:49:57Z</time>
      </trkpt>
      <trkpt lat="47.53728" lon="-1.3501">
        <ele>50</ele>
        <time>2018-02-24T15:49:58Z</time>
      </trkpt>
      <trkpt lat="47.53736" lon="-1.35025">
        <ele>50</ele>
        <time>2018-02-24T15:50:05Z</time>
      </trkpt>
      <trkpt lat="47.53738" lon="-1.3503">
        <ele>51</ele>
        <time>2018-02-24T15:50:07Z</time>
      </trkpt>
      <trkpt lat="47.53748" lon="-1.35052">
        <ele>51</ele>
        <time>2018-02-24T15:50:16Z</time>
      </trkpt>
      <trkpt lat="47.53753" lon="-1.35065">
        <ele>51</ele>
        <time>2018-02-24T15:50:22Z</time>
      </trkpt>
      <trkpt lat="47.53753" lon="-1.35068">
        <ele>51</ele>
        <time>2018-02-24T15:50:23Z</time>
      </trkpt>
      <trkpt lat="47.53757" lon="-1.35083">
        <ele>52</ele>
        <time>2018-02-24T15:50:30Z</time>
      </trkpt>
      <trkpt lat="47.53758" lon="-1.35091">
        <ele>52</ele>
        <time>2018-02-24T15:50:32Z</time>
      </trkpt>
      <trkpt lat="47.53758" lon="-1.35095">
        <ele>52</ele>
        <time>2018-02-24T15:50:33Z</time>
      </trkpt>
      <trkpt lat="47.53762" lon="-1.35116">
        <ele>53</ele>
        <time>2018-02-24T15:50:38Z</time>
      </trkpt>
      <trkpt lat="47.53765" lon="-1.35138">
        <ele>53</ele>
        <time>2018-02-24T15:50:43Z</time>
      </trkpt>
      <trkpt lat="47.53766" lon="-1.35144">
        <ele>53</ele>
        <time>2018-02-24T15:50:44Z</time>
      </trkpt>
      <trkpt lat="47.5377" lon="-1.3517">
        <ele>54</ele>
        <time>2018-02-24T15:50:49Z</time>
      </trkpt>
      <trkpt lat="47.53774" lon="-1.352">
        <ele>54</ele>
        <time>2018-02-24T15:50:55Z</time>
      </trkpt>
      <trkpt lat="47.53775" lon="-1.3521">
        <ele>54</ele>
        <time>2018-02-24T15:50:57Z</time>
      </trkpt>
      <trkpt lat="47.53776" lon="-1.35227">
        <ele>55</ele>
        <time>2018-02-24T15:51:00Z</time>
      </trkpt>
      <trkpt lat="47.53778" lon="-1.35265">
        <ele>55</ele>
        <time>2018-02-24T15:51:08Z</time>
      </trkpt>
      <trkpt lat="47.53779" lon="-1.35303">
        <ele>55</ele>
        <time>2018-02-24T15:51:15Z</time>
      </trkpt>
      <trkpt lat="47.5378" lon="-1.35331">
        <ele>55</ele>
        <time>2018-02-24T15:51:20Z</time>
      </trkpt>
      <trkpt lat="47.53781" lon="-1.3534">
        <ele>55</ele>
        <time>2018-02-24T15:51:22Z</time>
      </trkpt>
      <trkpt lat="47.53783" lon="-1.35371">
        <ele>55</ele>
        <time>2018-02-24T15:51:29Z</time>
      </trkpt>
      <trkpt lat="47.53776" lon="-1.35382">
        <ele>55</ele>
        <time>2018-02-24T15:51:38Z</time>
      </trkpt>
      <trkpt lat="47.53765" lon="-1.35391">
        <ele>55</ele>
        <time>2018-02-24T15:51:45Z</time>
      </trkpt>
      <trkpt lat="47.5375" lon="-1.354">
        <ele>55</ele>
        <time>2018-02-24T15:51:53Z</time>
      </trkpt>
      <trkpt lat="47.53735" lon="-1.35411">
        <ele>55</ele>
        <time>2018-02-24T15:52:00Z</time>
      </trkpt>
      <trkpt lat="47.53715" lon="-1.35424">
        <ele>55</ele>
        <time>2018-02-24T15:52:08Z</time>
      </trkpt>
      <trkpt lat="47.53705" lon="-1.35428">
        <ele>54</ele>
        <time>2018-02-24T15:52:12Z</time>
      </trkpt>
      <trkpt lat="47.537" lon="-1.35432">
        <ele>54</ele>
        <time>2018-02-24T15:52:14Z</time>
      </trkpt>
      <trkpt lat="47.53681" lon="-1.35444">
        <ele>54</ele>
        <time>2018-02-24T15:52:21Z</time>
      </trkpt>
      <trkpt lat="47.53662" lon="-1.35457">
        <ele>53</ele>
        <time>2018-02-24T15:52:28Z</time>
      </trkpt>
      <trkpt lat="47.53659" lon="-1.35459">
        <ele>53</ele>
        <time>2018-02-24T15:52:29Z</time>
      </trkpt>
      <trkpt lat="47.53643" lon="-1.35467">
        <ele>53</ele>
        <time>2018-02-24T15:52:34Z</time>
      </trkpt>
      <trkpt lat="47.53635" lon="-1.35473">
        <ele>52</ele>
        <time>2018-02-24T15:52:38Z</time>
      </trkpt>
      <trkpt lat="47.53632" lon="-1.35475">
        <ele>52</ele>
        <time>2018-02-24T15:52:40Z</time>
      </trkpt>
      <trkpt lat="47.53623" lon="-1.35479">
        <ele>52</ele>
        <time>2018-02-24T15:52:53Z</time>
      </trkpt>
      <trkpt lat="47.53621" lon="-1.3548">
        <ele>52</ele>
        <time>2018-02-24T15:52:54Z</time>
      </trkpt>
      <trkpt lat="47.53612" lon="-1.35494">
        <ele>52</ele>
        <time>2018-02-24T15:53:02Z</time>
      </trkpt>
      <trkpt lat="47.53618" lon="-1.35511">
        <ele>52</ele>
        <time>2018-02-24T15:53:07Z</time>
      </trkpt>
      <trkpt lat="47.53626" lon="-1.35539">
        <ele>52</ele>
        <time>2018-02-24T15:53:14Z</time>
      </trkpt>
      <trkpt lat="47.53635" lon="-1.3557">
        <ele>52</ele>
        <time>2018-02-24T15:53:20Z</time>
      </trkpt>
      <trkpt lat="47.53643" lon="-1.35596">
        <ele>53</ele>
        <time>2018-02-24T15:53:26Z</time>
      </trkpt>
      <trkpt lat="47.53644" lon="-1.35599">
        <ele>54</ele>
        <time>2018-02-24T15:53:27Z</time>
      </trkpt>
      <trkpt lat="47.5365" lon="-1.35623">
        <ele>54</ele>
        <time>2018-02-24T15:53:34Z</time>
      </trkpt>
      <trkpt lat="47.53655" lon="-1.35649">
        <ele>54</ele>
        <time>2018-02-24T15:53:40Z</time>
      </trkpt>
      <trkpt lat="47.53662" lon="-1.35675">
        <ele>54</ele>
        <time>2018-02-24T15:53:45Z</time>
      </trkpt>
      <trkpt lat="47.53667" lon="-1.35697">
        <ele>54</ele>
        <time>2018-02-24T15:53:50Z</time>
      </trkpt>
      <trkpt lat="47.53668" lon="-1.35701">
        <ele>55</ele>
        <time>2018-02-24T15:53:51Z</time>
      </trkpt>
      <trkpt lat="47.53677" lon="-1.35732">
        <ele>55</ele>
        <time>2018-02-24T15:53:58Z</time>
      </trkpt>
      <trkpt lat="47.53678" lon="-1.35762">
        <ele>55</ele>
        <time>2018-02-24T15:54:05Z</time>
      </trkpt>
      <trkpt lat="47.53678" lon="-1.35766">
        <ele>56</ele>
        <time>2018-02-24T15:54:06Z</time>
      </trkpt>
      <trkpt lat="47.53675" lon="-1.35787">
        <ele>56</ele>
        <time>2018-02-24T15:54:11Z</time>
      </trkpt>
      <trkpt lat="47.53674" lon="-1.3581">
        <ele>56</ele>
        <time>2018-02-24T15:54:17Z</time>
      </trkpt>
      <trkpt lat="47.53674" lon="-1.35838">
        <ele>55</ele>
        <time>2018-02-24T15:54:24Z</time>
      </trkpt>
      <trkpt lat="47.53678" lon="-1.35867">
        <ele>55</ele>
        <time>2018-02-24T15:54:31Z</time>
      </trkpt>
      <trkpt lat="47.53685" lon="-1.35893">
        <ele>56</ele>
        <time>2018-02-24T15:54:38Z</time>
      </trkpt>
      <trkpt lat="47.53694" lon="-1.35917">
        <ele>55</ele>
        <time>2018-02-24T15:54:45Z</time>
      </trkpt>
      <trkpt lat="47.53702" lon="-1.35936">
        <ele>56</ele>
        <time>2018-02-24T15:54:50Z</time>
      </trkpt>
      <trkpt lat="47.53712" lon="-1.35962">
        <ele>55</ele>
        <time>2018-02-24T15:54:58Z</time>
      </trkpt>
      <trkpt lat="47.53722" lon="-1.35987">
        <ele>55</ele>
        <time>2018-02-24T15:55:05Z</time>
      </trkpt>
      <trkpt lat="47.53729" lon="-1.36001">
        <ele>55</ele>
        <time>2018-02-24T15:55:11Z</time>
      </trkpt>
      <trkpt lat="47.53736" lon="-1.36016">
        <ele>56</ele>
        <time>2018-02-24T15:58:04Z</time>
      </trkpt>
      <trkpt lat="47.53731" lon="-1.3603">
        <ele>56</ele>
        <time>2018-02-24T15:58:08Z</time>
      </trkpt>
      <trkpt lat="47.53729" lon="-1.36033">
        <ele>56</ele>
        <time>2018-02-24T15:58:09Z</time>
      </trkpt>
      <trkpt lat="47.53716" lon="-1.36052">
        <ele>56</ele>
        <time>2018-02-24T15:58:14Z</time>
      </trkpt>
      <trkpt lat="47.53697" lon="-1.36079">
        <ele>56</ele>
        <time>2018-02-24T15:58:22Z</time>
      </trkpt>
      <trkpt lat="47.53675" lon="-1.36109">
        <ele>56</ele>
        <time>2018-02-24T15:58:30Z</time>
      </trkpt>
      <trkpt lat="47.53652" lon="-1.36138">
        <ele>56</ele>
        <time>2018-02-24T15:58:38Z</time>
      </trkpt>
      <trkpt lat="47.53632" lon="-1.36165">
        <ele>55</ele>
        <time>2018-02-24T15:58:46Z</time>
      </trkpt>
      <trkpt lat="47.53614" lon="-1.36185">
        <ele>55</ele>
        <time>2018-02-24T15:58:52Z</time>
      </trkpt>
      <trkpt lat="47.53593" lon="-1.36212">
        <ele>55</ele>
        <time>2018-02-24T15:59:00Z</time>
      </trkpt>
      <trkpt lat="47.53571" lon="-1.36236">
        <ele>55</ele>
        <time>2018-02-24T15:59:07Z</time>
      </trkpt>
      <trkpt lat="47.5355" lon="-1.3626">
        <ele>54</ele>
        <time>2018-02-24T15:59:13Z</time>
      </trkpt>
      <trkpt lat="47.53546" lon="-1.36264">
        <ele>54</ele>
        <time>2018-02-24T15:59:14Z</time>
      </trkpt>
      <trkpt lat="47.53515" lon="-1.36292">
        <ele>53</ele>
        <time>2018-02-24T15:59:21Z</time>
      </trkpt>
      <trkpt lat="47.5351" lon="-1.36296">
        <ele>53</ele>
        <time>2018-02-24T15:59:22Z</time>
      </trkpt>
      <trkpt lat="47.53484" lon="-1.3632">
        <ele>52</ele>
        <time>2018-02-24T15:59:28Z</time>
      </trkpt>
      <trkpt lat="47.53479" lon="-1.36324">
        <ele>52</ele>
        <time>2018-02-24T15:59:29Z</time>
      </trkpt>
      <trkpt lat="47.53454" lon="-1.36346">
        <ele>51</ele>
        <time>2018-02-24T15:59:35Z</time>
      </trkpt>
      <trkpt lat="47.53432" lon="-1.36364">
        <ele>51</ele>
        <time>2018-02-24T15:59:41Z</time>
      </trkpt>
      <trkpt lat="47.5342" lon="-1.36365">
        <ele>51</ele>
        <time>2018-02-24T15:59:46Z</time>
      </trkpt>
      <trkpt lat="47.53411" lon="-1.3635">
        <ele>51</ele>
        <time>2018-02-24T15:59:52Z</time>
      </trkpt>
      <trkpt lat="47.534" lon="-1.36331">
        <ele>52</ele>
        <time>2018-02-24T15:59:58Z</time>
      </trkpt>
      <trkpt lat="47.53389" lon="-1.36308">
        <ele>52</ele>
        <time>2018-02-24T16:00:05Z</time>
      </trkpt>
      <trkpt lat="47.53381" lon="-1.3629">
        <ele>52</ele>
        <time>2018-02-24T16:00:10Z</time>
      </trkpt>
      <trkpt lat="47.53377" lon="-1.36283">
        <ele>52</ele>
        <time>2018-02-24T16:00:12Z</time>
      </trkpt>
      <trkpt lat="47.53366" lon="-1.36259">
        <ele>53</ele>
        <time>2018-02-24T16:00:19Z</time>
      </trkpt>
      <trkpt lat="47.53357" lon="-1.36241">
        <ele>53</ele>
        <time>2018-02-24T16:00:24Z</time>
      </trkpt>
      <trkpt lat="47.53343" lon="-1.36213">
        <ele>53</ele>
        <time>2018-02-24T16:00:31Z</time>
      </trkpt>
      <trkpt lat="47.53341" lon="-1.36205">
        <ele>53</ele>
        <time>2018-02-24T16:00:33Z</time>
      </trkpt>
      <trkpt lat="47.53337" lon="-1.36196">
        <ele>53</ele>
        <time>2018-02-24T16:00:36Z</time>
      </trkpt>
      <trkpt lat="47.53323" lon="-1.3617">
        <ele>54</ele>
        <time>2018-02-24T16:00:43Z</time>
      </trkpt>
      <trkpt lat="47.53317" lon="-1.36153">
        <ele>54</ele>
        <time>2018-02-24T16:00:47Z</time>
      </trkpt>
      <trkpt lat="47.53315" lon="-1.36148">
        <ele>54</ele>
        <time>2018-02-24T16:00:48Z</time>
      </trkpt>
      <trkpt lat="47.53304" lon="-1.36123">
        <ele>54</ele>
        <time>2018-02-24T16:00:54Z</time>
      </trkpt>
      <trkpt lat="47.53295" lon="-1.36095">
        <ele>54</ele>
        <time>2018-02-24T16:01:01Z</time>
      </trkpt>
      <trkpt lat="47.53286" lon="-1.36067">
        <ele>55</ele>
        <time>2018-02-24T16:01:08Z</time>
      </trkpt>
      <trkpt lat="47.53274" lon="-1.36043">
        <ele>54</ele>
        <time>2018-02-24T16:01:15Z</time>
      </trkpt>
      <trkpt lat="47.53262" lon="-1.36013">
        <ele>55</ele>
        <time>2018-02-24T16:01:22Z</time>
      </trkpt>
      <trkpt lat="47.53256" lon="-1.35988">
        <ele>55</ele>
        <time>2018-02-24T16:01:28Z</time>
      </trkpt>
      <trkpt lat="47.53243" lon="-1.35958">
        <ele>54</ele>
        <time>2018-02-24T16:01:36Z</time>
      </trkpt>
      <trkpt lat="47.53239" lon="-1.3595">
        <ele>54</ele>
        <time>2018-02-24T16:01:40Z</time>
      </trkpt>
      <trkpt lat="47.53226" lon="-1.35939">
        <ele>54</ele>
        <time>2018-02-24T16:01:47Z</time>
      </trkpt>
      <trkpt lat="47.53221" lon="-1.35949">
        <ele>54</ele>
        <time>2018-02-24T16:01:51Z</time>
      </trkpt>
      <trkpt lat="47.53219" lon="-1.35952">
        <ele>54</ele>
        <time>2018-02-24T16:01:52Z</time>
      </trkpt>
      <trkpt lat="47.5321" lon="-1.35976">
        <ele>54</ele>
        <time>2018-02-24T16:01:58Z</time>
      </trkpt>
      <trkpt lat="47.53201" lon="-1.36">
        <ele>53</ele>
        <time>2018-02-24T16:02:04Z</time>
      </trkpt>
      <trkpt lat="47.53198" lon="-1.36009">
        <ele>53</ele>
        <time>2018-02-24T16:02:06Z</time>
      </trkpt>
      <trkpt lat="47.53181" lon="-1.36055">
        <ele>53</ele>
        <time>2018-02-24T16:02:16Z</time>
      </trkpt>
      <trkpt lat="47.53167" lon="-1.36094">
        <ele>53</ele>
        <time>2018-02-24T16:02:24Z</time>
      </trkpt>
      <trkpt lat="47.53155" lon="-1.36129">
        <ele>53</ele>
        <time>2018-02-24T16:02:31Z</time>
      </trkpt>
      <trkpt lat="47.53143" lon="-1.36166">
        <ele>52</ele>
        <time>2018-02-24T16:02:39Z</time>
      </trkpt>
      <trkpt lat="47.5313" lon="-1.36201">
        <ele>52</ele>
        <time>2018-02-24T16:02:46Z</time>
      </trkpt>
      <trkpt lat="47.53129" lon="-1.36205">
        <ele>52</ele>
        <time>2018-02-24T16:02:47Z</time>
      </trkpt>
      <trkpt lat="47.53118" lon="-1.36237">
        <ele>52</ele>
        <time>2018-02-24T16:02:54Z</time>
      </trkpt>
      <trkpt lat="47.53107" lon="-1.36268">
        <ele>52</ele>
        <time>2018-02-24T16:03:01Z</time>
      </trkpt>
      <trkpt lat="47.53092" lon="-1.36304">
        <ele>52</ele>
        <time>2018-02-24T16:03:10Z</time>
      </trkpt>
      <trkpt lat="47.53078" lon="-1.36334">
        <ele>52</ele>
        <time>2018-02-24T16:03:18Z</time>
      </trkpt>
      <trkpt lat="47.53062" lon="-1.36369">
        <ele>52</ele>
        <time>2018-02-24T16:03:28Z</time>
      </trkpt>
      <trkpt lat="47.53048" lon="-1.36401">
        <ele>52</ele>
        <time>2018-02-24T16:03:37Z</time>
      </trkpt>
      <trkpt lat="47.5304" lon="-1.3642">
        <ele>52</ele>
        <time>2018-02-24T16:03:42Z</time>
      </trkpt>
      <trkpt lat="47.53031" lon="-1.3644">
        <ele>53</ele>
        <time>2018-02-24T16:03:48Z</time>
      </trkpt>
      <trkpt lat="47.53015" lon="-1.36473">
        <ele>53</ele>
        <time>2018-02-24T16:03:58Z</time>
      </trkpt>
      <trkpt lat="47.53004" lon="-1.36494">
        <ele>53</ele>
        <time>2018-02-24T16:04:04Z</time>
      </trkpt>
      <trkpt lat="47.52998" lon="-1.36508">
        <ele>53</ele>
        <time>2018-02-24T16:04:08Z</time>
      </trkpt>
      <trkpt lat="47.52986" lon="-1.36537">
        <ele>54</ele>
        <time>2018-02-24T16:04:17Z</time>
      </trkpt>
      <trkpt lat="47.52972" lon="-1.36545">
        <ele>54</ele>
        <time>2018-02-24T16:04:23Z</time>
      </trkpt>
      <trkpt lat="47.52954" lon="-1.36549">
        <ele>55</ele>
        <time>2018-02-24T16:04:30Z</time>
      </trkpt>
      <trkpt lat="47.52931" lon="-1.36555">
        <ele>55</ele>
        <time>2018-02-24T16:04:39Z</time>
      </trkpt>
      <trkpt lat="47.52926" lon="-1.36556">
        <ele>55</ele>
        <time>2018-02-24T16:04:41Z</time>
      </trkpt>
      <trkpt lat="47.52911" lon="-1.36559">
        <ele>56</ele>
        <time>2018-02-24T16:04:47Z</time>
      </trkpt>
      <trkpt lat="47.52893" lon="-1.36564">
        <ele>56</ele>
        <time>2018-02-24T16:04:54Z</time>
      </trkpt>
      <trkpt lat="47.52877" lon="-1.36567">
        <ele>56</ele>
        <time>2018-02-24T16:05:00Z</time>
      </trkpt>
      <trkpt lat="47.52872" lon="-1.36568">
        <ele>56</ele>
        <time>2018-02-24T16:05:02Z</time>
      </trkpt>
      <trkpt lat="47.52854" lon="-1.36572">
        <ele>57</ele>
        <time>2018-02-24T16:05:09Z</time>
      </trkpt>
      <trkpt lat="47.52835" lon="-1.36575">
        <ele>57</ele>
        <time>2018-02-24T16:05:16Z</time>
      </trkpt>
      <trkpt lat="47.5282" lon="-1.36579">
        <ele>57</ele>
        <time>2018-02-24T16:05:22Z</time>
      </trkpt>
      <trkpt lat="47.52807" lon="-1.36582">
        <ele>58</ele>
        <time>2018-02-24T16:05:27Z</time>
      </trkpt>
      <trkpt lat="47.52792" lon="-1.36586">
        <ele>59</ele>
        <time>2018-02-24T16:05:33Z</time>
      </trkpt>
      <trkpt lat="47.52775" lon="-1.36589">
        <ele>59</ele>
        <time>2018-02-24T16:05:40Z</time>
      </trkpt>
      <trkpt lat="47.5277" lon="-1.3659">
        <ele>60</ele>
        <time>2018-02-24T16:05:42Z</time>
      </trkpt>
      <trkpt lat="47.52752" lon="-1.36594">
        <ele>60</ele>
        <time>2018-02-24T16:05:49Z</time>
      </trkpt>
      <trkpt lat="47.52729" lon="-1.36599">
        <ele>61</ele>
        <time>2018-02-24T16:05:58Z</time>
      </trkpt>
      <trkpt lat="47.52726" lon="-1.366">
        <ele>61</ele>
        <time>2018-02-24T16:05:59Z</time>
      </trkpt>
      <trkpt lat="47.52704" lon="-1.36604">
        <ele>61</ele>
        <time>2018-02-24T16:06:08Z</time>
      </trkpt>
      <trkpt lat="47.52691" lon="-1.36608">
        <ele>60</ele>
        <time>2018-02-24T16:06:15Z</time>
      </trkpt>
      <trkpt lat="47.52688" lon="-1.36609">
        <ele>60</ele>
        <time>2018-02-24T16:07:27Z</time>
      </trkpt>
      <trkpt lat="47.52684" lon="-1.36612">
        <ele>60</ele>
        <time>2018-02-24T16:07:29Z</time>
      </trkpt>
      <trkpt lat="47.52676" lon="-1.3663">
        <ele>60</ele>
        <time>2018-02-24T16:07:34Z</time>
      </trkpt>
      <trkpt lat="47.52668" lon="-1.36655">
        <ele>60</ele>
        <time>2018-02-24T16:07:41Z</time>
      </trkpt>
      <trkpt lat="47.52652" lon="-1.36689">
        <ele>60</ele>
        <time>2018-02-24T16:07:50Z</time>
      </trkpt>
      <trkpt lat="47.52634" lon="-1.36709">
        <ele>59</ele>
        <time>2018-02-24T16:07:58Z</time>
      </trkpt>
      <trkpt lat="47.52623" lon="-1.36724">
        <ele>59</ele>
        <time>2018-02-24T16:08:02Z</time>
      </trkpt>
      <trkpt lat="47.52614" lon="-1.36735">
        <ele>58</ele>
        <time>2018-02-24T16:08:05Z</time>
      </trkpt>
      <trkpt lat="47.52602" lon="-1.36751">
        <ele>57</ele>
        <time>2018-02-24T16:08:09Z</time>
      </trkpt>
      <trkpt lat="47.52586" lon="-1.36774">
        <ele>57</ele>
        <time>2018-02-24T16:08:14Z</time>
      </trkpt>
      <trkpt lat="47.52572" lon="-1.36795">
        <ele>56</ele>
        <time>2018-02-24T16:08:18Z</time>
      </trkpt>
      <trkpt lat="47.5256" lon="-1.36818">
        <ele>56</ele>
        <time>2018-02-24T16:08:22Z</time>
      </trkpt>
      <trkpt lat="47.52557" lon="-1.36825">
        <ele>55</ele>
        <time>2018-02-24T16:08:23Z</time>
      </trkpt>
      <trkpt lat="47.52545" lon="-1.3685">
        <ele>54</ele>
        <time>2018-02-24T16:08:28Z</time>
      </trkpt>
      <trkpt lat="47.52532" lon="-1.36854">
        <ele>53</ele>
        <time>2018-02-24T16:08:32Z</time>
      </trkpt>
      <trkpt lat="47.52528" lon="-1.36853">
        <ele>53</ele>
        <time>2018-02-24T16:08:33Z</time>
      </trkpt>
      <trkpt lat="47.52524" lon="-1.36852">
        <ele>53</ele>
        <time>2018-02-24T16:08:34Z</time>
      </trkpt>
      <trkpt lat="47.52512" lon="-1.36851">
        <ele>52</ele>
        <time>2018-02-24T16:08:37Z</time>
      </trkpt>
      <trkpt lat="47.525" lon="-1.36848">
        <ele>51</ele>
        <time>2018-02-24T16:08:40Z</time>
      </trkpt>
      <trkpt lat="47.52477" lon="-1.36844">
        <ele>50</ele>
        <time>2018-02-24T16:08:45Z</time>
      </trkpt>
      <trkpt lat="47.52449" lon="-1.3684">
        <ele>49</ele>
        <time>2018-02-24T16:08:50Z</time>
      </trkpt>
      <trkpt lat="47.52432" lon="-1.36838">
        <ele>48</ele>
        <time>2018-02-24T16:08:53Z</time>
      </trkpt>
      <trkpt lat="47.52415" lon="-1.36835">
        <ele>48</ele>
        <time>2018-02-24T16:08:56Z</time>
      </trkpt>
      <trkpt lat="47.52386" lon="-1.36831">
        <ele>46</ele>
        <time>2018-02-24T16:09:01Z</time>
      </trkpt>
      <trkpt lat="47.52374" lon="-1.3683">
        <ele>46</ele>
        <time>2018-02-24T16:09:03Z</time>
      </trkpt>
      <trkpt lat="47.52369" lon="-1.36829">
        <ele>45</ele>
        <time>2018-02-24T16:09:04Z</time>
      </trkpt>
      <trkpt lat="47.52339" lon="-1.36824">
        <ele>44</ele>
        <time>2018-02-24T16:09:09Z</time>
      </trkpt>
      <trkpt lat="47.52321" lon="-1.36821">
        <ele>43</ele>
        <time>2018-02-24T16:09:12Z</time>
      </trkpt>
      <trkpt lat="47.52309" lon="-1.36819">
        <ele>42</ele>
        <time>2018-02-24T16:09:14Z</time>
      </trkpt>
      <trkpt lat="47.52297" lon="-1.36817">
        <ele>42</ele>
        <time>2018-02-24T16:09:16Z</time>
      </trkpt>
      <trkpt lat="47.52273" lon="-1.36813">
        <ele>41</ele>
        <time>2018-02-24T16:09:20Z</time>
      </trkpt>
      <trkpt lat="47.52254" lon="-1.3681">
        <ele>40</ele>
        <time>2018-02-24T16:09:23Z</time>
      </trkpt>
      <trkpt lat="47.52241" lon="-1.36808">
        <ele>39</ele>
        <time>2018-02-24T16:09:25Z</time>
      </trkpt>
      <trkpt lat="47.52235" lon="-1.36807">
        <ele>39</ele>
        <time>2018-02-24T16:09:26Z</time>
      </trkpt>
      <trkpt lat="47.52206" lon="-1.36802">
        <ele>37</ele>
        <time>2018-02-24T16:09:31Z</time>
      </trkpt>
      <trkpt lat="47.522" lon="-1.36801">
        <ele>37</ele>
        <time>2018-02-24T16:09:32Z</time>
      </trkpt>
      <trkpt lat="47.52184" lon="-1.36798">
        <ele>36</ele>
        <time>2018-02-24T16:09:35Z</time>
      </trkpt>
      <trkpt lat="47.52165" lon="-1.36796">
        <ele>35</ele>
        <time>2018-02-24T16:09:39Z</time>
      </trkpt>
      <trkpt lat="47.52161" lon="-1.36796">
        <ele>35</ele>
        <time>2018-02-24T16:09:40Z</time>
      </trkpt>
      <trkpt lat="47.52154" lon="-1.36795">
        <ele>34</ele>
        <time>2018-02-24T16:09:42Z</time>
      </trkpt>
      <trkpt lat="47.52146" lon="-1.36792">
        <ele>33</ele>
        <time>2018-02-24T16:09:45Z</time>
      </trkpt>
      <trkpt lat="47.52137" lon="-1.36794">
        <ele>32</ele>
        <time>2018-02-24T16:09:50Z</time>
      </trkpt>
      <trkpt lat="47.52137" lon="-1.36801">
        <ele>32</ele>
        <time>2018-02-24T16:10:15Z</time>
      </trkpt>
      <trkpt lat="47.52137" lon="-1.36805">
        <ele>32</ele>
        <time>2018-02-24T16:10:16Z</time>
      </trkpt>
      <trkpt lat="47.5214" lon="-1.36838">
        <ele>31</ele>
        <time>2018-02-24T16:10:23Z</time>
      </trkpt>
      <trkpt lat="47.52142" lon="-1.36865">
        <ele>31</ele>
        <time>2018-02-24T16:10:29Z</time>
      </trkpt>
      <trkpt lat="47.52144" lon="-1.36893">
        <ele>31</ele>
        <time>2018-02-24T16:10:37Z</time>
      </trkpt>
      <trkpt lat="47.52145" lon="-1.36908">
        <ele>31</ele>
        <time>2018-02-24T16:10:41Z</time>
      </trkpt>
      <trkpt lat="47.52145" lon="-1.3692">
        <ele>31</ele>
        <time>2018-02-24T16:10:44Z</time>
      </trkpt>
      <trkpt lat="47.52141" lon="-1.36943">
        <ele>31</ele>
        <time>2018-02-24T16:10:50Z</time>
      </trkpt>
      <trkpt lat="47.52132" lon="-1.36959">
        <ele>31</ele>
        <time>2018-02-24T16:10:56Z</time>
      </trkpt>
      <trkpt lat="47.5212" lon="-1.36982">
        <ele>31</ele>
        <time>2018-02-24T16:11:04Z</time>
      </trkpt>
      <trkpt lat="47.52113" lon="-1.37008">
        <ele>31</ele>
        <time>2018-02-24T16:11:11Z</time>
      </trkpt>
      <trkpt lat="47.52111" lon="-1.3703">
        <ele>31</ele>
        <time>2018-02-24T16:11:17Z</time>
      </trkpt>
      <trkpt lat="47.5211" lon="-1.37056">
        <ele>31</ele>
        <time>2018-02-24T16:11:24Z</time>
      </trkpt>
      <trkpt lat="47.5211" lon="-1.37077">
        <ele>31</ele>
        <time>2018-02-24T16:11:30Z</time>
      </trkpt>
      <trkpt lat="47.52109" lon="-1.371">
        <ele>31</ele>
        <time>2018-02-24T16:11:36Z</time>
      </trkpt>
      <trkpt lat="47.52107" lon="-1.37124">
        <ele>31</ele>
        <time>2018-02-24T16:11:43Z</time>
      </trkpt>
      <trkpt lat="47.52102" lon="-1.37139">
        <ele>32</ele>
        <time>2018-02-24T16:11:49Z</time>
      </trkpt>
      <trkpt lat="47.52102" lon="-1.37141">
        <ele>32</ele>
        <time>2018-02-24T16:11:50Z</time>
      </trkpt>
      <trkpt lat="47.521" lon="-1.37146">
        <ele>32</ele>
        <time>2018-02-24T16:11:53Z</time>
      </trkpt>
      <trkpt lat="47.521" lon="-1.37148">
        <ele>32</ele>
        <time>2018-02-24T16:11:54Z</time>
      </trkpt>
      <trkpt lat="47.521" lon="-1.37169">
        <ele>32</ele>
        <time>2018-02-24T16:12:00Z</time>
      </trkpt>
      <trkpt lat="47.52101" lon="-1.37196">
        <ele>32</ele>
        <time>2018-02-24T16:12:06Z</time>
      </trkpt>
      <trkpt lat="47.52101" lon="-1.37219">
        <ele>32</ele>
        <time>2018-02-24T16:12:12Z</time>
      </trkpt>
      <trkpt lat="47.52101" lon="-1.37254">
        <ele>33</ele>
        <time>2018-02-24T16:12:20Z</time>
      </trkpt>
      <trkpt lat="47.52095" lon="-1.37283">
        <ele>33</ele>
        <time>2018-02-24T16:12:26Z</time>
      </trkpt>
      <trkpt lat="47.5208" lon="-1.37321">
        <ele>32</ele>
        <time>2018-02-24T16:12:35Z</time>
      </trkpt>
      <trkpt lat="47.52073" lon="-1.37336">
        <ele>33</ele>
        <time>2018-02-24T16:12:39Z</time>
      </trkpt>
      <trkpt lat="47.52067" lon="-1.3735">
        <ele>33</ele>
        <time>2018-02-24T16:12:43Z</time>
      </trkpt>
      <trkpt lat="47.52054" lon="-1.37382">
        <ele>34</ele>
        <time>2018-02-24T16:12:51Z</time>
      </trkpt>
      <trkpt lat="47.52042" lon="-1.37409">
        <ele>34</ele>
        <time>2018-02-24T16:12:58Z</time>
      </trkpt>
      <trkpt lat="47.5203" lon="-1.37438">
        <ele>34</ele>
        <time>2018-02-24T16:13:05Z</time>
      </trkpt>
      <trkpt lat="47.5201" lon="-1.37483">
        <ele>33</ele>
        <time>2018-02-24T16:13:15Z</time>
      </trkpt>
      <trkpt lat="47.51997" lon="-1.37513">
        <ele>33</ele>
        <time>2018-02-24T16:13:21Z</time>
      </trkpt>
      <trkpt lat="47.51992" lon="-1.37523">
        <ele>33</ele>
        <time>2018-02-24T16:13:23Z</time>
      </trkpt>
      <trkpt lat="47.51979" lon="-1.37552">
        <ele>32</ele>
        <time>2018-02-24T16:13:30Z</time>
      </trkpt>
      <trkpt lat="47.51969" lon="-1.37572">
        <ele>32</ele>
        <time>2018-02-24T16:13:37Z</time>
      </trkpt>
      <trkpt lat="47.51959" lon="-1.37577">
        <ele>33</ele>
        <time>2018-02-24T16:13:43Z</time>
      </trkpt>
      <trkpt lat="47.5194" lon="-1.37573">
        <ele>33</ele>
        <time>2018-02-24T16:13:50Z</time>
      </trkpt>
      <trkpt lat="47.51926" lon="-1.37572">
        <ele>34</ele>
        <time>2018-02-24T16:13:56Z</time>
      </trkpt>
      <trkpt lat="47.51903" lon="-1.37571">
        <ele>34</ele>
        <time>2018-02-24T16:14:04Z</time>
      </trkpt>
      <trkpt lat="47.51894" lon="-1.3757">
        <ele>34</ele>
        <time>2018-02-24T16:14:07Z</time>
      </trkpt>
      <trkpt lat="47.51875" lon="-1.37567">
        <ele>35</ele>
        <time>2018-02-24T16:14:14Z</time>
      </trkpt>
      <trkpt lat="47.51867" lon="-1.37565">
        <ele>35</ele>
        <time>2018-02-24T16:14:17Z</time>
      </trkpt>
      <trkpt lat="47.51847" lon="-1.37562">
        <ele>35</ele>
        <time>2018-02-24T16:14:24Z</time>
      </trkpt>
      <trkpt lat="47.51829" lon="-1.3756">
        <ele>36</ele>
        <time>2018-02-24T16:14:31Z</time>
      </trkpt>
      <trkpt lat="47.51824" lon="-1.3756">
        <ele>36</ele>
        <time>2018-02-24T16:14:33Z</time>
      </trkpt>
      <trkpt lat="47.51805" lon="-1.37557">
        <ele>37</ele>
        <time>2018-02-24T16:14:41Z</time>
      </trkpt>
      <trkpt lat="47.518" lon="-1.37557">
        <ele>37</ele>
        <time>2018-02-24T16:14:43Z</time>
      </trkpt>
      <trkpt lat="47.51786" lon="-1.37555">
        <ele>38</ele>
        <time>2018-02-24T16:14:49Z</time>
      </trkpt>
      <trkpt lat="47.51779" lon="-1.37553">
        <ele>39</ele>
        <time>2018-02-24T16:14:52Z</time>
      </trkpt>
      <trkpt lat="47.51772" lon="-1.37553">
        <ele>39</ele>
        <time>2018-02-24T16:14:55Z</time>
      </trkpt>
      <trkpt lat="47.51761" lon="-1.37552">
        <ele>40</ele>
        <time>2018-02-24T16:15:00Z</time>
      </trkpt>
      <trkpt lat="47.51758" lon="-1.37551">
        <ele>41</ele>
        <time>2018-02-24T16:15:01Z</time>
      </trkpt>
      <trkpt lat="47.51749" lon="-1.3755">
        <ele>42</ele>
        <time>2018-02-24T16:15:05Z</time>
      </trkpt>
      <trkpt lat="47.5174" lon="-1.37549">
        <ele>42</ele>
        <time>2018-02-24T16:15:09Z</time>
      </trkpt>
      <trkpt lat="47.51735" lon="-1.37548">
        <ele>43</ele>
        <time>2018-02-24T16:15:11Z</time>
      </trkpt>
      <trkpt lat="47.51726" lon="-1.37547">
        <ele>43</ele>
        <time>2018-02-24T16:15:15Z</time>
      </trkpt>
      <trkpt lat="47.51719" lon="-1.37546">
        <ele>44</ele>
        <time>2018-02-24T16:15:18Z</time>
      </trkpt>
      <trkpt lat="47.51707" lon="-1.37544">
        <ele>44</ele>
        <time>2018-02-24T16:15:23Z</time>
      </trkpt>
      <trkpt lat="47.51705" lon="-1.37544">
        <ele>45</ele>
        <time>2018-02-24T16:15:24Z</time>
      </trkpt>
      <trkpt lat="47.51691" lon="-1.37542">
        <ele>46</ele>
        <time>2018-02-24T16:15:30Z</time>
      </trkpt>
      <trkpt lat="47.51689" lon="-1.37542">
        <ele>46</ele>
        <time>2018-02-24T16:15:31Z</time>
      </trkpt>
      <trkpt lat="47.51675" lon="-1.37539">
        <ele>47</ele>
        <time>2018-02-24T16:15:37Z</time>
      </trkpt>
      <trkpt lat="47.51668" lon="-1.37539">
        <ele>47</ele>
        <time>2018-02-24T16:15:40Z</time>
      </trkpt>
      <trkpt lat="47.51648" lon="-1.37536">
        <ele>48</ele>
        <time>2018-02-24T16:15:48Z</time>
      </trkpt>
      <trkpt lat="47.51646" lon="-1.37536">
        <ele>48</ele>
        <time>2018-02-24T16:15:49Z</time>
      </trkpt>
      <trkpt lat="47.51634" lon="-1.37534">
        <ele>49</ele>
        <time>2018-02-24T16:15:54Z</time>
      </trkpt>
      <trkpt lat="47.51624" lon="-1.37532">
        <ele>49</ele>
        <time>2018-02-24T16:15:58Z</time>
      </trkpt>
      <trkpt lat="47.51609" lon="-1.37531">
        <ele>50</ele>
        <time>2018-02-24T16:16:04Z</time>
      </trkpt>
      <trkpt lat="47.51602" lon="-1.3753">
        <ele>50</ele>
        <time>2018-02-24T16:16:07Z</time>
      </trkpt>
      <trkpt lat="47.51582" lon="-1.37528">
        <ele>51</ele>
        <time>2018-02-24T16:16:15Z</time>
      </trkpt>
      <trkpt lat="47.5158" lon="-1.37527">
        <ele>51</ele>
        <time>2018-02-24T16:16:16Z</time>
      </trkpt>
      <trkpt lat="47.51574" lon="-1.37526">
        <ele>51</ele>
        <time>2018-02-24T16:16:18Z</time>
      </trkpt>
      <trkpt lat="47.51555" lon="-1.37523">
        <ele>51</ele>
        <time>2018-02-24T16:16:26Z</time>
      </trkpt>
      <trkpt lat="47.51538" lon="-1.37521">
        <ele>51</ele>
        <time>2018-02-24T16:16:34Z</time>
      </trkpt>
      <trkpt lat="47.51533" lon="-1.37518">
        <ele>51</ele>
        <time>2018-02-24T16:20:03Z</time>
      </trkpt>
      <trkpt lat="47.51531" lon="-1.37516">
        <ele>51</ele>
        <time>2018-02-24T16:20:04Z</time>
      </trkpt>
      <trkpt lat="47.51529" lon="-1.37506">
        <ele>51</ele>
        <time>2018-02-24T16:20:07Z</time>
      </trkpt>
      <trkpt lat="47.51526" lon="-1.37493">
        <ele>51</ele>
        <time>2018-02-24T16:20:10Z</time>
      </trkpt>
      <trkpt lat="47.5152" lon="-1.37467">
        <ele>50</ele>
        <time>2018-02-24T16:20:15Z</time>
      </trkpt>
      <trkpt lat="47.51517" lon="-1.37455">
        <ele>50</ele>
        <time>2018-02-24T16:20:17Z</time>
      </trkpt>
      <trkpt lat="47.51507" lon="-1.37415">
        <ele>49</ele>
        <time>2018-02-24T16:20:23Z</time>
      </trkpt>
      <trkpt lat="47.51504" lon="-1.374">
        <ele>49</ele>
        <time>2018-02-24T16:20:25Z</time>
      </trkpt>
      <trkpt lat="47.515" lon="-1.37375">
        <ele>48</ele>
        <time>2018-02-24T16:20:28Z</time>
      </trkpt>
      <trkpt lat="47.51499" lon="-1.37367">
        <ele>47</ele>
        <time>2018-02-24T16:20:29Z</time>
      </trkpt>
      <trkpt lat="47.51499" lon="-1.37358">
        <ele>47</ele>
        <time>2018-02-24T16:20:30Z</time>
      </trkpt>
      <trkpt lat="47.51498" lon="-1.37342">
        <ele>47</ele>
        <time>2018-02-24T16:20:32Z</time>
      </trkpt>
      <trkpt lat="47.51497" lon="-1.37312">
        <ele>45</ele>
        <time>2018-02-24T16:20:36Z</time>
      </trkpt>
      <trkpt lat="47.51496" lon="-1.37305">
        <ele>45</ele>
        <time>2018-02-24T16:20:37Z</time>
      </trkpt>
      <trkpt lat="47.51494" lon="-1.37297">
        <ele>45</ele>
        <time>2018-02-24T16:20:38Z</time>
      </trkpt>
      <trkpt lat="47.51492" lon="-1.37289">
        <ele>44</ele>
        <time>2018-02-24T16:20:39Z</time>
      </trkpt>
      <trkpt lat="47.51483" lon="-1.37267">
        <ele>42</ele>
        <time>2018-02-24T16:20:42Z</time>
      </trkpt>
      <trkpt lat="47.51475" lon="-1.37253">
        <ele>42</ele>
        <time>2018-02-24T16:20:44Z</time>
      </trkpt>
      <trkpt lat="47.51471" lon="-1.37247">
        <ele>41</ele>
        <time>2018-02-24T16:20:45Z</time>
      </trkpt>
      <trkpt lat="47.5146" lon="-1.37237">
        <ele>40</ele>
        <time>2018-02-24T16:20:47Z</time>
      </trkpt>
      <trkpt lat="47.51448" lon="-1.37228">
        <ele>39</ele>
        <time>2018-02-24T16:20:49Z</time>
      </trkpt>
      <trkpt lat="47.51435" lon="-1.37221">
        <ele>37</ele>
        <time>2018-02-24T16:20:51Z</time>
      </trkpt>
      <trkpt lat="47.51428" lon="-1.37218">
        <ele>37</ele>
        <time>2018-02-24T16:20:52Z</time>
      </trkpt>
      <trkpt lat="47.51421" lon="-1.37216">
        <ele>36</ele>
        <time>2018-02-24T16:20:53Z</time>
      </trkpt>
      <trkpt lat="47.51406" lon="-1.37212">
        <ele>35</ele>
        <time>2018-02-24T16:20:55Z</time>
      </trkpt>
      <trkpt lat="47.51392" lon="-1.37209">
        <ele>33</ele>
        <time>2018-02-24T16:20:57Z</time>
      </trkpt>
      <trkpt lat="47.51386" lon="-1.37207">
        <ele>32</ele>
        <time>2018-02-24T16:20:58Z</time>
      </trkpt>
      <trkpt lat="47.5138" lon="-1.37205">
        <ele>32</ele>
        <time>2018-02-24T16:20:59Z</time>
      </trkpt>
      <trkpt lat="47.51364" lon="-1.37198">
        <ele>30</ele>
        <time>2018-02-24T16:21:02Z</time>
      </trkpt>
      <trkpt lat="47.51358" lon="-1.37195">
        <ele>30</ele>
        <time>2018-02-24T16:21:03Z</time>
      </trkpt>
      <trkpt lat="47.51353" lon="-1.37192">
        <ele>29</ele>
        <time>2018-02-24T16:21:04Z</time>
      </trkpt>
      <trkpt lat="47.51334" lon="-1.37183">
        <ele>28</ele>
        <time>2018-02-24T16:21:07Z</time>
      </trkpt>
      <trkpt lat="47.51327" lon="-1.37179">
        <ele>27</ele>
        <time>2018-02-24T16:21:08Z</time>
      </trkpt>
      <trkpt lat="47.51321" lon="-1.37175">
        <ele>26</ele>
        <time>2018-02-24T16:21:09Z</time>
      </trkpt>
      <trkpt lat="47.5131" lon="-1.37166">
        <ele>25</ele>
        <time>2018-02-24T16:21:11Z</time>
      </trkpt>
      <trkpt lat="47.513" lon="-1.37157">
        <ele>24</ele>
        <time>2018-02-24T16:21:13Z</time>
      </trkpt>
      <trkpt lat="47.51286" lon="-1.37141">
        <ele>23</ele>
        <time>2018-02-24T16:21:17Z</time>
      </trkpt>
      <trkpt lat="47.51283" lon="-1.37137">
        <ele>23</ele>
        <time>2018-02-24T16:21:18Z</time>
      </trkpt>
      <trkpt lat="47.51281" lon="-1.37127">
        <ele>23</ele>
        <time>2018-02-24T16:21:21Z</time>
      </trkpt>
      <trkpt lat="47.51281" lon="-1.37124">
        <ele>23</ele>
        <time>2018-02-24T16:21:22Z</time>
      </trkpt>
      <trkpt lat="47.51285" lon="-1.37117">
        <ele>23</ele>
        <time>2018-02-24T16:21:25Z</time>
      </trkpt>
      <trkpt lat="47.51291" lon="-1.37112">
        <ele>23</ele>
        <time>2018-02-24T16:21:28Z</time>
      </trkpt>
      <trkpt lat="47.51304" lon="-1.37105">
        <ele>23</ele>
        <time>2018-02-24T16:21:34Z</time>
      </trkpt>
      <trkpt lat="47.51324" lon="-1.37096">
        <ele>23</ele>
        <time>2018-02-24T16:21:41Z</time>
      </trkpt>
      <trkpt lat="47.51338" lon="-1.37089">
        <ele>24</ele>
        <time>2018-02-24T16:21:47Z</time>
      </trkpt>
      <trkpt lat="47.51341" lon="-1.37088">
        <ele>24</ele>
        <time>2018-02-24T16:21:48Z</time>
      </trkpt>
      <trkpt lat="47.51355" lon="-1.3708">
        <ele>24</ele>
        <time>2018-02-24T16:21:54Z</time>
      </trkpt>
      <trkpt lat="47.51366" lon="-1.37075">
        <ele>25</ele>
        <time>2018-02-24T16:21:58Z</time>
      </trkpt>
      <trkpt lat="47.51375" lon="-1.37072">
        <ele>25</ele>
        <time>2018-02-24T16:22:01Z</time>
      </trkpt>
      <trkpt lat="47.51386" lon="-1.37069">
        <ele>26</ele>
        <time>2018-02-24T16:22:05Z</time>
      </trkpt>
      <trkpt lat="47.51397" lon="-1.37066">
        <ele>26</ele>
        <time>2018-02-24T16:22:09Z</time>
      </trkpt>
      <trkpt lat="47.51411" lon="-1.37063">
        <ele>27</ele>
        <time>2018-02-24T16:22:14Z</time>
      </trkpt>
      <trkpt lat="47.51423" lon="-1.3706">
        <ele>28</ele>
        <time>2018-02-24T16:22:19Z</time>
      </trkpt>
      <trkpt lat="47.51433" lon="-1.37057">
        <ele>29</ele>
        <time>2018-02-24T16:22:24Z</time>
      </trkpt>
      <trkpt lat="47.51439" lon="-1.37053">
        <ele>30</ele>
        <time>2018-02-24T16:22:27Z</time>
      </trkpt>
      <trkpt lat="47.51449" lon="-1.37049">
        <ele>30</ele>
        <time>2018-02-24T16:22:31Z</time>
      </trkpt>
      <trkpt lat="47.51458" lon="-1.37044">
        <ele>31</ele>
        <time>2018-02-24T16:22:35Z</time>
      </trkpt>
      <trkpt lat="47.51462" lon="-1.37041">
        <ele>32</ele>
        <time>2018-02-24T16:22:37Z</time>
      </trkpt>
      <trkpt lat="47.51472" lon="-1.37035">
        <ele>33</ele>
        <time>2018-02-24T16:22:42Z</time>
      </trkpt>
      <trkpt lat="47.51474" lon="-1.37034">
        <ele>33</ele>
        <time>2018-02-24T16:22:43Z</time>
      </trkpt>
      <trkpt lat="47.51481" lon="-1.3703">
        <ele>34</ele>
        <time>2018-02-24T16:22:47Z</time>
      </trkpt>
      <trkpt lat="47.51494" lon="-1.37022">
        <ele>34</ele>
        <time>2018-02-24T16:22:54Z</time>
      </trkpt>
      <trkpt lat="47.51498" lon="-1.3702">
        <ele>35</ele>
        <time>2018-02-24T16:22:56Z</time>
      </trkpt>
      <trkpt lat="47.51506" lon="-1.37014">
        <ele>35</ele>
        <time>2018-02-24T16:23:00Z</time>
      </trkpt>
      <trkpt lat="47.51512" lon="-1.37009">
        <ele>36</ele>
        <time>2018-02-24T16:23:03Z</time>
      </trkpt>
      <trkpt lat="47.51517" lon="-1.37001">
        <ele>37</ele>
        <time>2018-02-24T16:23:07Z</time>
      </trkpt>
      <trkpt lat="47.51518" lon="-1.36999">
        <ele>37</ele>
        <time>2018-02-24T16:23:08Z</time>
      </trkpt>
      <trkpt lat="47.51519" lon="-1.36985">
        <ele>38</ele>
        <time>2018-02-24T16:23:13Z</time>
      </trkpt>
      <trkpt lat="47.51519" lon="-1.36977">
        <ele>39</ele>
        <time>2018-02-24T16:23:16Z</time>
      </trkpt>
      <trkpt lat="47.51518" lon="-1.36972">
        <ele>39</ele>
        <time>2018-02-24T16:23:18Z</time>
      </trkpt>
      <trkpt lat="47.51517" lon="-1.3696">
        <ele>41</ele>
        <time>2018-02-24T16:23:23Z</time>
      </trkpt>
      <trkpt lat="47.51516" lon="-1.36957">
        <ele>41</ele>
        <time>2018-02-24T16:23:24Z</time>
      </trkpt>
      <trkpt lat="47.51515" lon="-1.36946">
        <ele>42</ele>
        <time>2018-02-24T16:23:28Z</time>
      </trkpt>
      <trkpt lat="47.51515" lon="-1.36933">
        <ele>43</ele>
        <time>2018-02-24T16:23:33Z</time>
      </trkpt>
      <trkpt lat="47.51514" lon="-1.36931">
        <ele>43</ele>
        <time>2018-02-24T16:23:34Z</time>
      </trkpt>
      <trkpt lat="47.51513" lon="-1.36918">
        <ele>44</ele>
        <time>2018-02-24T16:23:39Z</time>
      </trkpt>
      <trkpt lat="47.51512" lon="-1.36904">
        <ele>45</ele>
        <time>2018-02-24T16:23:44Z</time>
      </trkpt>
      <trkpt lat="47.51512" lon="-1.36901">
        <ele>45</ele>
        <time>2018-02-24T16:23:45Z</time>
      </trkpt>
      <trkpt lat="47.5151" lon="-1.36886">
        <ele>46</ele>
        <time>2018-02-24T16:23:50Z</time>
      </trkpt>
      <trkpt lat="47.51509" lon="-1.3687">
        <ele>47</ele>
        <time>2018-02-24T16:23:55Z</time>
      </trkpt>
      <trkpt lat="47.51509" lon="-1.36864">
        <ele>47</ele>
        <time>2018-02-24T16:23:57Z</time>
      </trkpt>
      <trkpt lat="47.51508" lon="-1.36842">
        <ele>48</ele>
        <time>2018-02-24T16:24:04Z</time>
      </trkpt>
      <trkpt lat="47.51507" lon="-1.36839">
        <ele>48</ele>
        <time>2018-02-24T16:24:05Z</time>
      </trkpt>
      <trkpt lat="47.51506" lon="-1.36814">
        <ele>49</ele>
        <time>2018-02-24T16:24:13Z</time>
      </trkpt>
      <trkpt lat="47.51505" lon="-1.36806">
        <ele>50</ele>
        <time>2018-02-24T16:24:16Z</time>
      </trkpt>
      <trkpt lat="47.51503" lon="-1.36778">
        <ele>50</ele>
        <time>2018-02-24T16:24:25Z</time>
      </trkpt>
      <trkpt lat="47.51502" lon="-1.36762">
        <ele>50</ele>
        <time>2018-02-24T16:24:30Z</time>
      </trkpt>
      <trkpt lat="47.51501" lon="-1.36753">
        <ele>50</ele>
        <time>2018-02-24T16:24:33Z</time>
      </trkpt>
      <trkpt lat="47.51501" lon="-1.36746">
        <ele>51</ele>
        <time>2018-02-24T16:27:53Z</time>
      </trkpt>
      <trkpt lat="47.51501" lon="-1.36729">
        <ele>50</ele>
        <time>2018-02-24T16:27:58Z</time>
      </trkpt>
      <trkpt lat="47.51499" lon="-1.36699">
        <ele>51</ele>
        <time>2018-02-24T16:28:06Z</time>
      </trkpt>
      <trkpt lat="47.51497" lon="-1.36665">
        <ele>51</ele>
        <time>2018-02-24T16:28:15Z</time>
      </trkpt>
      <trkpt lat="47.51497" lon="-1.36654">
        <ele>51</ele>
        <time>2018-02-24T16:28:18Z</time>
      </trkpt>
      <trkpt lat="47.51496" lon="-1.36632">
        <ele>52</ele>
        <time>2018-02-24T16:28:24Z</time>
      </trkpt>
      <trkpt lat="47.51494" lon="-1.366">
        <ele>52</ele>
        <time>2018-02-24T16:28:33Z</time>
      </trkpt>
      <trkpt lat="47.51493" lon="-1.36568">
        <ele>52</ele>
        <time>2018-02-24T16:28:42Z</time>
      </trkpt>
      <trkpt lat="47.5149" lon="-1.3655">
        <ele>52</ele>
        <time>2018-02-24T16:28:48Z</time>
      </trkpt>
      <trkpt lat="47.51488" lon="-1.36548">
        <ele>52</ele>
        <time>2018-02-24T16:28:49Z</time>
      </trkpt>
      <trkpt lat="47.51477" lon="-1.36542">
        <ele>53</ele>
        <time>2018-02-24T16:28:54Z</time>
      </trkpt>
      <trkpt lat="47.51454" lon="-1.36544">
        <ele>53</ele>
        <time>2018-02-24T16:29:02Z</time>
      </trkpt>
      <trkpt lat="47.51425" lon="-1.36546">
        <ele>52</ele>
        <time>2018-02-24T16:29:11Z</time>
      </trkpt>
      <trkpt lat="47.51412" lon="-1.36546">
        <ele>52</ele>
        <time>2018-02-24T16:29:17Z</time>
      </trkpt>
      <trkpt lat="47.51394" lon="-1.36548">
        <ele>52</ele>
        <time>2018-02-24T16:29:24Z</time>
      </trkpt>
      <trkpt lat="47.51387" lon="-1.36548">
        <ele>51</ele>
        <time>2018-02-24T16:29:26Z</time>
      </trkpt>
      <trkpt lat="47.51362" lon="-1.36549">
        <ele>50</ele>
        <time>2018-02-24T16:29:32Z</time>
      </trkpt>
      <trkpt lat="47.51358" lon="-1.36548">
        <ele>50</ele>
        <time>2018-02-24T16:29:33Z</time>
      </trkpt>
      <trkpt lat="47.51331" lon="-1.3654">
        <ele>49</ele>
        <time>2018-02-24T16:29:38Z</time>
      </trkpt>
      <trkpt lat="47.51299" lon="-1.36529">
        <ele>48</ele>
        <time>2018-02-24T16:29:43Z</time>
      </trkpt>
      <trkpt lat="47.51285" lon="-1.36524">
        <ele>47</ele>
        <time>2018-02-24T16:29:45Z</time>
      </trkpt>
      <trkpt lat="47.51271" lon="-1.36519">
        <ele>47</ele>
        <time>2018-02-24T16:29:47Z</time>
      </trkpt>
      <trkpt lat="47.51245" lon="-1.3651">
        <ele>45</ele>
        <time>2018-02-24T16:29:51Z</time>
      </trkpt>
      <trkpt lat="47.51233" lon="-1.36506">
        <ele>45</ele>
        <time>2018-02-24T16:29:53Z</time>
      </trkpt>
      <trkpt lat="47.51222" lon="-1.36502">
        <ele>44</ele>
        <time>2018-02-24T16:29:55Z</time>
      </trkpt>
      <trkpt lat="47.51212" lon="-1.365">
        <ele>44</ele>
        <time>2018-02-24T16:29:57Z</time>
      </trkpt>
      <trkpt lat="47.51207" lon="-1.36501">
        <ele>44</ele>
        <time>2018-02-24T16:29:58Z</time>
      </trkpt>
      <trkpt lat="47.5119" lon="-1.3651">
        <ele>44</ele>
        <time>2018-02-24T16:30:02Z</time>
      </trkpt>
      <trkpt lat="47.51186" lon="-1.36512">
        <ele>44</ele>
        <time>2018-02-24T16:30:03Z</time>
      </trkpt>
      <trkpt lat="47.51169" lon="-1.36518">
        <ele>44</ele>
        <time>2018-02-24T16:30:08Z</time>
      </trkpt>
      <trkpt lat="47.51167" lon="-1.36506">
        <ele>44</ele>
        <time>2018-02-24T16:30:11Z</time>
      </trkpt>
      <trkpt lat="47.5117" lon="-1.36498">
        <ele>44</ele>
        <time>2018-02-24T16:30:13Z</time>
      </trkpt>
      <trkpt lat="47.51175" lon="-1.36485">
        <ele>45</ele>
        <time>2018-02-24T16:30:16Z</time>
      </trkpt>
      <trkpt lat="47.51193" lon="-1.36447">
        <ele>45</ele>
        <time>2018-02-24T16:30:25Z</time>
      </trkpt>
      <trkpt lat="47.51203" lon="-1.36423">
        <ele>45</ele>
        <time>2018-02-24T16:30:31Z</time>
      </trkpt>
      <trkpt lat="47.51211" lon="-1.36404">
        <ele>46</ele>
        <time>2018-02-24T16:30:36Z</time>
      </trkpt>
      <trkpt lat="47.5122" lon="-1.36385">
        <ele>46</ele>
        <time>2018-02-24T16:30:42Z</time>
      </trkpt>
      <trkpt lat="47.51222" lon="-1.36381">
        <ele>46</ele>
        <time>2018-02-24T16:30:43Z</time>
      </trkpt>
      <trkpt lat="47.51232" lon="-1.36358">
        <ele>47</ele>
        <time>2018-02-24T16:30:50Z</time>
      </trkpt>
      <trkpt lat="47.5124" lon="-1.36328">
        <ele>48</ele>
        <time>2018-02-24T16:30:57Z</time>
      </trkpt>
      <trkpt lat="47.51241" lon="-1.36324">
        <ele>49</ele>
        <time>2018-02-24T16:30:58Z</time>
      </trkpt>
      <trkpt lat="47.51245" lon="-1.36291">
        <ele>49</ele>
        <time>2018-02-24T16:31:05Z</time>
      </trkpt>
      <trkpt lat="47.51245" lon="-1.36287">
        <ele>50</ele>
        <time>2018-02-24T16:31:06Z</time>
      </trkpt>
      <trkpt lat="47.51248" lon="-1.36252">
        <ele>50</ele>
        <time>2018-02-24T16:31:14Z</time>
      </trkpt>
      <trkpt lat="47.51252" lon="-1.36211">
        <ele>50</ele>
        <time>2018-02-24T16:31:23Z</time>
      </trkpt>
      <trkpt lat="47.51252" lon="-1.36206">
        <ele>50</ele>
        <time>2018-02-24T16:31:24Z</time>
      </trkpt>
      <trkpt lat="47.51255" lon="-1.36168">
        <ele>50</ele>
        <time>2018-02-24T16:31:32Z</time>
      </trkpt>
      <trkpt lat="47.51259" lon="-1.36131">
        <ele>51</ele>
        <time>2018-02-24T16:31:40Z</time>
      </trkpt>
      <trkpt lat="47.51262" lon="-1.36089">
        <ele>51</ele>
        <time>2018-02-24T16:31:49Z</time>
      </trkpt>
      <trkpt lat="47.51266" lon="-1.36053">
        <ele>51</ele>
        <time>2018-02-24T16:31:57Z</time>
      </trkpt>
      <trkpt lat="47.5127" lon="-1.36006">
        <ele>51</ele>
        <time>2018-02-24T16:32:07Z</time>
      </trkpt>
      <trkpt lat="47.51272" lon="-1.35988">
        <ele>52</ele>
        <time>2018-02-24T16:32:11Z</time>
      </trkpt>
      <trkpt lat="47.51274" lon="-1.35957">
        <ele>52</ele>
        <time>2018-02-24T16:32:18Z</time>
      </trkpt>
      <trkpt lat="47.51277" lon="-1.35921">
        <ele>52</ele>
        <time>2018-02-24T16:32:26Z</time>
      </trkpt>
      <trkpt lat="47.51278" lon="-1.35908">
        <ele>53</ele>
        <time>2018-02-24T16:32:29Z</time>
      </trkpt>
      <trkpt lat="47.51281" lon="-1.35882">
        <ele>53</ele>
        <time>2018-02-24T16:32:35Z</time>
      </trkpt>
      <trkpt lat="47.51283" lon="-1.3585">
        <ele>53</ele>
        <time>2018-02-24T16:32:42Z</time>
      </trkpt>
      <trkpt lat="47.51284" lon="-1.35839">
        <ele>54</ele>
        <time>2018-02-24T16:32:45Z</time>
      </trkpt>
      <trkpt lat="47.51285" lon="-1.35822">
        <ele>54</ele>
        <time>2018-02-24T16:32:49Z</time>
      </trkpt>
      <trkpt lat="47.51288" lon="-1.35786">
        <ele>54</ele>
        <time>2018-02-24T16:32:58Z</time>
      </trkpt>
      <trkpt lat="47.51289" lon="-1.35779">
        <ele>55</ele>
        <time>2018-02-24T16:33:00Z</time>
      </trkpt>
      <trkpt lat="47.51289" lon="-1.35759">
        <ele>55</ele>
        <time>2018-02-24T16:33:06Z</time>
      </trkpt>
      <trkpt lat="47.51291" lon="-1.35731">
        <ele>55</ele>
        <time>2018-02-24T16:33:13Z</time>
      </trkpt>
      <trkpt lat="47.51292" lon="-1.35706">
        <ele>56</ele>
        <time>2018-02-24T16:33:19Z</time>
      </trkpt>
      <trkpt lat="47.51293" lon="-1.35697">
        <ele>56</ele>
        <time>2018-02-24T16:33:21Z</time>
      </trkpt>
      <trkpt lat="47.51297" lon="-1.35668">
        <ele>57</ele>
        <time>2018-02-24T16:33:28Z</time>
      </trkpt>
      <trkpt lat="47.51297" lon="-1.35664">
        <ele>57</ele>
        <time>2018-02-24T16:33:29Z</time>
      </trkpt>
      <trkpt lat="47.51299" lon="-1.35635">
        <ele>57</ele>
        <time>2018-02-24T16:33:36Z</time>
      </trkpt>
      <trkpt lat="47.513" lon="-1.35595">
        <ele>58</ele>
        <time>2018-02-24T16:33:46Z</time>
      </trkpt>
      <trkpt lat="47.513" lon="-1.35591">
        <ele>58</ele>
        <time>2018-02-24T16:33:47Z</time>
      </trkpt>
      <trkpt lat="47.51301" lon="-1.3556">
        <ele>58</ele>
        <time>2018-02-24T16:33:54Z</time>
      </trkpt>
      <trkpt lat="47.51301" lon="-1.35517">
        <ele>58</ele>
        <time>2018-02-24T16:34:04Z</time>
      </trkpt>
      <trkpt lat="47.513" lon="-1.35477">
        <ele>58</ele>
        <time>2018-02-24T16:34:13Z</time>
      </trkpt>
      <trkpt lat="47.51301" lon="-1.35439">
        <ele>58</ele>
        <time>2018-02-24T16:34:21Z</time>
      </trkpt>
      <trkpt lat="47.51303" lon="-1.35394">
        <ele>58</ele>
        <time>2018-02-24T16:34:31Z</time>
      </trkpt>
      <trkpt lat="47.51312" lon="-1.35359">
        <ele>58</ele>
        <time>2018-02-24T16:34:39Z</time>
      </trkpt>
      <trkpt lat="47.51324" lon="-1.35322">
        <ele>58</ele>
        <time>2018-02-24T16:34:48Z</time>
      </trkpt>
      <trkpt lat="47.51334" lon="-1.35291">
        <ele>58</ele>
        <time>2018-02-24T16:34:56Z</time>
      </trkpt>
      <trkpt lat="47.51345" lon="-1.35256">
        <ele>58</ele>
        <time>2018-02-24T16:35:05Z</time>
      </trkpt>
      <trkpt lat="47.51353" lon="-1.35231">
        <ele>58</ele>
        <time>2018-02-24T16:35:12Z</time>
      </trkpt>
      <trkpt lat="47.51362" lon="-1.352">
        <ele>57</ele>
        <time>2018-02-24T16:35:22Z</time>
      </trkpt>
      <trkpt lat="47.51363" lon="-1.35193">
        <ele>56</ele>
        <time>2018-02-24T16:40:54Z</time>
      </trkpt>
      <trkpt lat="47.51363" lon="-1.3519">
        <ele>56</ele>
        <time>2018-02-24T16:40:55Z</time>
      </trkpt>
      <trkpt lat="47.51357" lon="-1.35168">
        <ele>56</ele>
        <time>2018-02-24T16:41:01Z</time>
      </trkpt>
      <trkpt lat="47.51346" lon="-1.35131">
        <ele>57</ele>
        <time>2018-02-24T16:41:10Z</time>
      </trkpt>
      <trkpt lat="47.51342" lon="-1.35118">
        <ele>57</ele>
        <time>2018-02-24T16:41:13Z</time>
      </trkpt>
      <trkpt lat="47.51333" lon="-1.35088">
        <ele>58</ele>
        <time>2018-02-24T16:41:20Z</time>
      </trkpt>
      <trkpt lat="47.51327" lon="-1.35071">
        <ele>59</ele>
        <time>2018-02-24T16:41:24Z</time>
      </trkpt>
      <trkpt lat="47.51321" lon="-1.35053">
        <ele>59</ele>
        <time>2018-02-24T16:41:28Z</time>
      </trkpt>
      <trkpt lat="47.51313" lon="-1.35027">
        <ele>60</ele>
        <time>2018-02-24T16:41:34Z</time>
      </trkpt>
      <trkpt lat="47.5131" lon="-1.35012">
        <ele>60</ele>
        <time>2018-02-24T16:41:37Z</time>
      </trkpt>
      <trkpt lat="47.51299" lon="-1.34964">
        <ele>61</ele>
        <time>2018-02-24T16:41:47Z</time>
      </trkpt>
      <trkpt lat="47.51291" lon="-1.34925">
        <ele>60</ele>
        <time>2018-02-24T16:41:55Z</time>
      </trkpt>
      <trkpt lat="47.51285" lon="-1.3489">
        <ele>61</ele>
        <time>2018-02-24T16:42:03Z</time>
      </trkpt>
      <trkpt lat="47.51284" lon="-1.34886">
        <ele>61</ele>
        <time>2018-02-24T16:42:04Z</time>
      </trkpt>
      <trkpt lat="47.51276" lon="-1.34837">
        <ele>61</ele>
        <time>2018-02-24T16:42:15Z</time>
      </trkpt>
      <trkpt lat="47.5127" lon="-1.348">
        <ele>61</ele>
        <time>2018-02-24T16:42:23Z</time>
      </trkpt>
      <trkpt lat="47.51263" lon="-1.34747">
        <ele>61</ele>
        <time>2018-02-24T16:42:34Z</time>
      </trkpt>
      <trkpt lat="47.51264" lon="-1.34705">
        <ele>61</ele>
        <time>2018-02-24T16:42:43Z</time>
      </trkpt>
      <trkpt lat="47.5127" lon="-1.34668">
        <ele>61</ele>
        <time>2018-02-24T16:42:51Z</time>
      </trkpt>
      <trkpt lat="47.5128" lon="-1.34625">
        <ele>61</ele>
        <time>2018-02-24T16:43:01Z</time>
      </trkpt>
      <trkpt lat="47.51286" lon="-1.34591">
        <ele>61</ele>
        <time>2018-02-24T16:43:09Z</time>
      </trkpt>
      <trkpt lat="47.51291" lon="-1.34548">
        <ele>61</ele>
        <time>2018-02-24T16:43:19Z</time>
      </trkpt>
      <trkpt lat="47.51297" lon="-1.34503">
        <ele>62</ele>
        <time>2018-02-24T16:43:29Z</time>
      </trkpt>
      <trkpt lat="47.51298" lon="-1.34498">
        <ele>62</ele>
        <time>2018-02-24T16:43:30Z</time>
      </trkpt>
      <trkpt lat="47.513" lon="-1.34454">
        <ele>62</ele>
        <time>2018-02-24T16:43:40Z</time>
      </trkpt>
      <trkpt lat="47.513" lon="-1.34419">
        <ele>63</ele>
        <time>2018-02-24T16:43:48Z</time>
      </trkpt>
      <trkpt lat="47.51299" lon="-1.3441">
        <ele>63</ele>
        <time>2018-02-24T16:43:50Z</time>
      </trkpt>
      <trkpt lat="47.51297" lon="-1.34376">
        <ele>63</ele>
        <time>2018-02-24T16:43:58Z</time>
      </trkpt>
      <trkpt lat="47.51293" lon="-1.34355">
        <ele>64</ele>
        <time>2018-02-24T16:44:03Z</time>
      </trkpt>
      <trkpt lat="47.51289" lon="-1.34339">
        <ele>64</ele>
        <time>2018-02-24T16:44:07Z</time>
      </trkpt>
      <trkpt lat="47.51276" lon="-1.34312">
        <ele>64</ele>
        <time>2018-02-24T16:44:15Z</time>
      </trkpt>
      <trkpt lat="47.51263" lon="-1.34299">
        <ele>65</ele>
        <time>2018-02-24T16:44:20Z</time>
      </trkpt>
      <trkpt lat="47.51261" lon="-1.34297">
        <ele>65</ele>
        <time>2018-02-24T16:44:21Z</time>
      </trkpt>
      <trkpt lat="47.51251" lon="-1.34286">
        <ele>65</ele>
        <time>2018-02-24T16:44:26Z</time>
      </trkpt>
      <trkpt lat="47.51242" lon="-1.34258">
        <ele>66</ele>
        <time>2018-02-24T16:44:33Z</time>
      </trkpt>
      <trkpt lat="47.51241" lon="-1.34245">
        <ele>66</ele>
        <time>2018-02-24T16:44:36Z</time>
      </trkpt>
      <trkpt lat="47.51238" lon="-1.34224">
        <ele>66</ele>
        <time>2018-02-24T16:44:41Z</time>
      </trkpt>
      <trkpt lat="47.51235" lon="-1.34189">
        <ele>66</ele>
        <time>2018-02-24T16:44:48Z</time>
      </trkpt>
      <trkpt lat="47.51231" lon="-1.3414">
        <ele>65</ele>
        <time>2018-02-24T16:44:58Z</time>
      </trkpt>
      <trkpt lat="47.51229" lon="-1.34131">
        <ele>65</ele>
        <time>2018-02-24T16:45:00Z</time>
      </trkpt>
      <trkpt lat="47.51229" lon="-1.34126">
        <ele>65</ele>
        <time>2018-02-24T16:45:01Z</time>
      </trkpt>
      <trkpt lat="47.51227" lon="-1.34109">
        <ele>64</ele>
        <time>2018-02-24T16:45:05Z</time>
      </trkpt>
      <trkpt lat="47.51221" lon="-1.34061">
        <ele>64</ele>
        <time>2018-02-24T16:45:16Z</time>
      </trkpt>
      <trkpt lat="47.51218" lon="-1.34033">
        <ele>64</ele>
        <time>2018-02-24T16:45:22Z</time>
      </trkpt>
      <trkpt lat="47.51218" lon="-1.34024">
        <ele>64</ele>
        <time>2018-02-24T16:45:24Z</time>
      </trkpt>
      <trkpt lat="47.51218" lon="-1.33985">
        <ele>63</ele>
        <time>2018-02-24T16:45:34Z</time>
      </trkpt>
      <trkpt lat="47.51213" lon="-1.3397">
        <ele>63</ele>
        <time>2018-02-24T16:45:41Z</time>
      </trkpt>
      <trkpt lat="47.51211" lon="-1.33968">
        <ele>63</ele>
        <time>2018-02-24T16:46:11Z</time>
      </trkpt>
      <trkpt lat="47.51209" lon="-1.33966">
        <ele>62</ele>
        <time>2018-02-24T16:46:12Z</time>
      </trkpt>
      <trkpt lat="47.51192" lon="-1.33953">
        <ele>62</ele>
        <time>2018-02-24T16:46:17Z</time>
      </trkpt>
      <trkpt lat="47.51159" lon="-1.33935">
        <ele>62</ele>
        <time>2018-02-24T16:46:25Z</time>
      </trkpt>
      <trkpt lat="47.51155" lon="-1.33932">
        <ele>62</ele>
        <time>2018-02-24T16:46:26Z</time>
      </trkpt>
      <trkpt lat="47.5115" lon="-1.33931">
        <ele>61</ele>
        <time>2018-02-24T16:46:27Z</time>
      </trkpt>
      <trkpt lat="47.51128" lon="-1.33923">
        <ele>61</ele>
        <time>2018-02-24T16:46:32Z</time>
      </trkpt>
      <trkpt lat="47.5112" lon="-1.3392">
        <ele>60</ele>
        <time>2018-02-24T16:46:34Z</time>
      </trkpt>
      <trkpt lat="47.51105" lon="-1.33916">
        <ele>60</ele>
        <time>2018-02-24T16:46:39Z</time>
      </trkpt>
      <trkpt lat="47.51103" lon="-1.33914">
        <ele>59</ele>
        <time>2018-02-24T16:46:41Z</time>
      </trkpt>
      <trkpt lat="47.51101" lon="-1.33912">
        <ele>59</ele>
        <time>2018-02-24T16:47:01Z</time>
      </trkpt>
      <trkpt lat="47.51087" lon="-1.33903">
        <ele>59</ele>
        <time>2018-02-24T16:47:06Z</time>
      </trkpt>
      <trkpt lat="47.51071" lon="-1.33892">
        <ele>58</ele>
        <time>2018-02-24T16:47:10Z</time>
      </trkpt>
      <trkpt lat="47.51063" lon="-1.33888">
        <ele>58</ele>
        <time>2018-02-24T16:47:12Z</time>
      </trkpt>
      <trkpt lat="47.51049" lon="-1.33879">
        <ele>57</ele>
        <time>2018-02-24T16:47:16Z</time>
      </trkpt>
      <trkpt lat="47.51035" lon="-1.33872">
        <ele>57</ele>
        <time>2018-02-24T16:47:20Z</time>
      </trkpt>
      <trkpt lat="47.51024" lon="-1.33865">
        <ele>56</ele>
        <time>2018-02-24T16:47:24Z</time>
      </trkpt>
      <trkpt lat="47.51014" lon="-1.33859">
        <ele>55</ele>
        <time>2018-02-24T16:47:27Z</time>
      </trkpt>
      <trkpt lat="47.50998" lon="-1.33847">
        <ele>55</ele>
        <time>2018-02-24T16:47:32Z</time>
      </trkpt>
      <trkpt lat="47.50991" lon="-1.33842">
        <ele>54</ele>
        <time>2018-02-24T16:47:34Z</time>
      </trkpt>
      <trkpt lat="47.50977" lon="-1.33833">
        <ele>54</ele>
        <time>2018-02-24T16:47:38Z</time>
      </trkpt>
      <trkpt lat="47.50962" lon="-1.33822">
        <ele>53</ele>
        <time>2018-02-24T16:47:42Z</time>
      </trkpt>
      <trkpt lat="47.50959" lon="-1.3382">
        <ele>52</ele>
        <time>2018-02-24T16:47:43Z</time>
      </trkpt>
      <trkpt lat="47.50951" lon="-1.33816">
        <ele>52</ele>
        <time>2018-02-24T16:47:45Z</time>
      </trkpt>
      <trkpt lat="47.50937" lon="-1.33805">
        <ele>52</ele>
        <time>2018-02-24T16:47:49Z</time>
      </trkpt>
      <trkpt lat="47.50911" lon="-1.33789">
        <ele>52</ele>
        <time>2018-02-24T16:47:56Z</time>
      </trkpt>
      <trkpt lat="47.50897" lon="-1.33781">
        <ele>52</ele>
        <time>2018-02-24T16:48:01Z</time>
      </trkpt>
      <trkpt lat="47.50883" lon="-1.3377">
        <ele>53</ele>
        <time>2018-02-24T16:48:06Z</time>
      </trkpt>
      <trkpt lat="47.5087" lon="-1.33764">
        <ele>53</ele>
        <time>2018-02-24T16:48:11Z</time>
      </trkpt>
      <trkpt lat="47.50864" lon="-1.33761">
        <ele>54</ele>
        <time>2018-02-24T16:48:13Z</time>
      </trkpt>
      <trkpt lat="47.50852" lon="-1.33753">
        <ele>54</ele>
        <time>2018-02-24T16:48:17Z</time>
      </trkpt>
      <trkpt lat="47.50844" lon="-1.33747">
        <ele>55</ele>
        <time>2018-02-24T16:48:20Z</time>
      </trkpt>
      <trkpt lat="47.50832" lon="-1.3374">
        <ele>55</ele>
        <time>2018-02-24T16:48:24Z</time>
      </trkpt>
      <trkpt lat="47.50813" lon="-1.33731">
        <ele>55</ele>
        <time>2018-02-24T16:48:31Z</time>
      </trkpt>
      <trkpt lat="47.50801" lon="-1.33722">
        <ele>56</ele>
        <time>2018-02-24T16:48:36Z</time>
      </trkpt>
      <trkpt lat="47.50782" lon="-1.3371">
        <ele>56</ele>
        <time>2018-02-24T16:48:43Z</time>
      </trkpt>
      <trkpt lat="47.50761" lon="-1.33702">
        <ele>57</ele>
        <time>2018-02-24T16:48:50Z</time>
      </trkpt>
      <trkpt lat="47.50741" lon="-1.33703">
        <ele>56</ele>
        <time>2018-02-24T16:48:56Z</time>
      </trkpt>
      <trkpt lat="47.50715" lon="-1.337">
        <ele>56</ele>
        <time>2018-02-24T16:49:03Z</time>
      </trkpt>
      <trkpt lat="47.50693" lon="-1.33695">
        <ele>55</ele>
        <time>2018-02-24T16:49:09Z</time>
      </trkpt>
      <trkpt lat="47.50686" lon="-1.33692">
        <ele>55</ele>
        <time>2018-02-24T16:49:11Z</time>
      </trkpt>
      <trkpt lat="47.50672" lon="-1.33682">
        <ele>54</ele>
        <time>2018-02-24T16:49:16Z</time>
      </trkpt>
      <trkpt lat="47.50671" lon="-1.33679">
        <ele>53</ele>
        <time>2018-02-24T16:49:17Z</time>
      </trkpt>
      <trkpt lat="47.50671" lon="-1.3367">
        <ele>53</ele>
        <time>2018-02-24T16:51:22Z</time>
      </trkpt>
      <trkpt lat="47.50673" lon="-1.33667">
        <ele>53</ele>
        <time>2018-02-24T16:51:23Z</time>
      </trkpt>
      <trkpt lat="47.50682" lon="-1.33646">
        <ele>53</ele>
        <time>2018-02-24T16:51:30Z</time>
      </trkpt>
      <trkpt lat="47.50693" lon="-1.33625">
        <ele>55</ele>
        <time>2018-02-24T16:51:36Z</time>
      </trkpt>
      <trkpt lat="47.50695" lon="-1.3362">
        <ele>55</ele>
        <time>2018-02-24T16:51:38Z</time>
      </trkpt>
      <trkpt lat="47.50704" lon="-1.33594">
        <ele>56</ele>
        <time>2018-02-24T16:51:44Z</time>
      </trkpt>
      <trkpt lat="47.50704" lon="-1.33589">
        <ele>56</ele>
        <time>2018-02-24T16:51:45Z</time>
      </trkpt>
      <trkpt lat="47.507" lon="-1.33571">
        <ele>56</ele>
        <time>2018-02-24T16:51:49Z</time>
      </trkpt>
      <trkpt lat="47.50687" lon="-1.33547">
        <ele>56</ele>
        <time>2018-02-24T16:51:55Z</time>
      </trkpt>
      <trkpt lat="47.50668" lon="-1.3352">
        <ele>56</ele>
        <time>2018-02-24T16:52:03Z</time>
      </trkpt>
      <trkpt lat="47.50662" lon="-1.33493">
        <ele>56</ele>
        <time>2018-02-24T16:52:09Z</time>
      </trkpt>
      <trkpt lat="47.50663" lon="-1.33467">
        <ele>56</ele>
        <time>2018-02-24T16:52:15Z</time>
      </trkpt>
      <trkpt lat="47.50666" lon="-1.33421">
        <ele>56</ele>
        <time>2018-02-24T16:52:26Z</time>
      </trkpt>
      <trkpt lat="47.50667" lon="-1.334">
        <ele>57</ele>
        <time>2018-02-24T16:52:31Z</time>
      </trkpt>
      <trkpt lat="47.50668" lon="-1.33383">
        <ele>57</ele>
        <time>2018-02-24T16:52:35Z</time>
      </trkpt>
      <trkpt lat="47.50668" lon="-1.3334">
        <ele>57</ele>
        <time>2018-02-24T16:52:45Z</time>
      </trkpt>
      <trkpt lat="47.50666" lon="-1.33299">
        <ele>57</ele>
        <time>2018-02-24T16:52:54Z</time>
      </trkpt>
      <trkpt lat="47.50664" lon="-1.33262">
        <ele>57</ele>
        <time>2018-02-24T16:53:02Z</time>
      </trkpt>
      <trkpt lat="47.5066" lon="-1.33225">
        <ele>57</ele>
        <time>2018-02-24T16:53:10Z</time>
      </trkpt>
      <trkpt lat="47.50652" lon="-1.33192">
        <ele>56</ele>
        <time>2018-02-24T16:53:17Z</time>
      </trkpt>
      <trkpt lat="47.50636" lon="-1.33174">
        <ele>56</ele>
        <time>2018-02-24T16:53:22Z</time>
      </trkpt>
      <trkpt lat="47.50627" lon="-1.33169">
        <ele>56</ele>
        <time>2018-02-24T16:53:24Z</time>
      </trkpt>
      <trkpt lat="47.50611" lon="-1.33159">
        <ele>55</ele>
        <time>2018-02-24T16:53:27Z</time>
      </trkpt>
      <trkpt lat="47.50607" lon="-1.33154">
        <ele>55</ele>
        <time>2018-02-24T16:53:28Z</time>
      </trkpt>
      <trkpt lat="47.50602" lon="-1.33148">
        <ele>55</ele>
        <time>2018-02-24T16:53:29Z</time>
      </trkpt>
      <trkpt lat="47.50595" lon="-1.33135">
        <ele>54</ele>
        <time>2018-02-24T16:53:31Z</time>
      </trkpt>
      <trkpt lat="47.50589" lon="-1.3312">
        <ele>53</ele>
        <time>2018-02-24T16:53:33Z</time>
      </trkpt>
      <trkpt lat="47.50587" lon="-1.33111">
        <ele>53</ele>
        <time>2018-02-24T16:53:34Z</time>
      </trkpt>
      <trkpt lat="47.50582" lon="-1.33095">
        <ele>53</ele>
        <time>2018-02-24T16:53:36Z</time>
      </trkpt>
      <trkpt lat="47.50579" lon="-1.3308">
        <ele>52</ele>
        <time>2018-02-24T16:53:38Z</time>
      </trkpt>
      <trkpt lat="47.50577" lon="-1.33065">
        <ele>52</ele>
        <time>2018-02-24T16:53:40Z</time>
      </trkpt>
      <trkpt lat="47.50577" lon="-1.33059">
        <ele>52</ele>
        <time>2018-02-24T16:53:41Z</time>
      </trkpt>
      <trkpt lat="47.5058" lon="-1.33033">
        <ele>52</ele>
        <time>2018-02-24T16:53:46Z</time>
      </trkpt>
      <trkpt lat="47.50583" lon="-1.33">
        <ele>52</ele>
        <time>2018-02-24T16:53:53Z</time>
      </trkpt>
      <trkpt lat="47.50584" lon="-1.32975">
        <ele>53</ele>
        <time>2018-02-24T16:53:58Z</time>
      </trkpt>
      <trkpt lat="47.50585" lon="-1.32955">
        <ele>54</ele>
        <time>2018-02-24T16:54:02Z</time>
      </trkpt>
      <trkpt lat="47.50582" lon="-1.32917">
        <ele>54</ele>
        <time>2018-02-24T16:54:10Z</time>
      </trkpt>
      <trkpt lat="47.50582" lon="-1.32912">
        <ele>55</ele>
        <time>2018-02-24T16:54:11Z</time>
      </trkpt>
      <trkpt lat="47.50579" lon="-1.32872">
        <ele>55</ele>
        <time>2018-02-24T16:54:20Z</time>
      </trkpt>
      <trkpt lat="47.5058" lon="-1.32839">
        <ele>55</ele>
        <time>2018-02-24T16:54:27Z</time>
      </trkpt>
      <trkpt lat="47.50582" lon="-1.32826">
        <ele>55</ele>
        <time>2018-02-24T16:54:30Z</time>
      </trkpt>
      <trkpt lat="47.50583" lon="-1.32815">
        <ele>56</ele>
        <time>2018-02-24T16:54:33Z</time>
      </trkpt>
      <trkpt lat="47.50588" lon="-1.3278">
        <ele>56</ele>
        <time>2018-02-24T16:54:41Z</time>
      </trkpt>
      <trkpt lat="47.50595" lon="-1.3274">
        <ele>56</ele>
        <time>2018-02-24T16:54:50Z</time>
      </trkpt>
      <trkpt lat="47.50604" lon="-1.32698">
        <ele>56</ele>
        <time>2018-02-24T16:54:59Z</time>
      </trkpt>
      <trkpt lat="47.50613" lon="-1.32656">
        <ele>56</ele>
        <time>2018-02-24T16:55:08Z</time>
      </trkpt>
      <trkpt lat="47.50615" lon="-1.3264">
        <ele>55</ele>
        <time>2018-02-24T16:55:13Z</time>
      </trkpt>
      <trkpt lat="47.50618" lon="-1.32632">
        <ele>55</ele>
        <time>2018-02-24T16:56:12Z</time>
      </trkpt>
      <trkpt lat="47.50622" lon="-1.3263">
        <ele>55</ele>
        <time>2018-02-24T16:56:14Z</time>
      </trkpt>
      <trkpt lat="47.50631" lon="-1.32633">
        <ele>55</ele>
        <time>2018-02-24T16:56:18Z</time>
      </trkpt>
      <trkpt lat="47.50634" lon="-1.32634">
        <ele>55</ele>
        <time>2018-02-24T16:56:19Z</time>
      </trkpt>
      <trkpt lat="47.50647" lon="-1.3264">
        <ele>55</ele>
        <time>2018-02-24T16:56:25Z</time>
      </trkpt>
      <trkpt lat="47.50673" lon="-1.3265">
        <ele>55</ele>
        <time>2018-02-24T16:56:34Z</time>
      </trkpt>
      <trkpt lat="47.50697" lon="-1.32662">
        <ele>55</ele>
        <time>2018-02-24T16:56:41Z</time>
      </trkpt>
      <trkpt lat="47.50708" lon="-1.3267">
        <ele>54</ele>
        <time>2018-02-24T16:56:44Z</time>
      </trkpt>
      <trkpt lat="47.50725" lon="-1.32686">
        <ele>53</ele>
        <time>2018-02-24T16:56:49Z</time>
      </trkpt>
      <trkpt lat="47.50728" lon="-1.32689">
        <ele>53</ele>
        <time>2018-02-24T16:56:50Z</time>
      </trkpt>
      <trkpt lat="47.50743" lon="-1.32697">
        <ele>53</ele>
        <time>2018-02-24T16:56:54Z</time>
      </trkpt>
      <trkpt lat="47.50766" lon="-1.32699">
        <ele>52</ele>
        <time>2018-02-24T16:57:00Z</time>
      </trkpt>
      <trkpt lat="47.5077" lon="-1.32698">
        <ele>52</ele>
        <time>2018-02-24T16:57:01Z</time>
      </trkpt>
      <trkpt lat="47.50792" lon="-1.32697">
        <ele>51</ele>
        <time>2018-02-24T16:57:05Z</time>
      </trkpt>
      <trkpt lat="47.50799" lon="-1.32697">
        <ele>51</ele>
        <time>2018-02-24T16:57:06Z</time>
      </trkpt>
      <trkpt lat="47.50817" lon="-1.32697">
        <ele>49</ele>
        <time>2018-02-24T16:57:09Z</time>
      </trkpt>
      <trkpt lat="47.50832" lon="-1.32697">
        <ele>49</ele>
        <time>2018-02-24T16:57:12Z</time>
      </trkpt>
      <trkpt lat="47.50861" lon="-1.32697">
        <ele>49</ele>
        <time>2018-02-24T16:57:19Z</time>
      </trkpt>
      <trkpt lat="47.50891" lon="-1.32697">
        <ele>50</ele>
        <time>2018-02-24T16:57:28Z</time>
      </trkpt>
      <trkpt lat="47.50894" lon="-1.32696">
        <ele>50</ele>
        <time>2018-02-24T16:57:29Z</time>
      </trkpt>
      <trkpt lat="47.5091" lon="-1.32695">
        <ele>52</ele>
        <time>2018-02-24T16:57:34Z</time>
      </trkpt>
      <trkpt lat="47.50919" lon="-1.32693">
        <ele>52</ele>
        <time>2018-02-24T16:57:37Z</time>
      </trkpt>
      <trkpt lat="47.50928" lon="-1.32692">
        <ele>53</ele>
        <time>2018-02-24T16:57:40Z</time>
      </trkpt>
      <trkpt lat="47.50943" lon="-1.3269">
        <ele>53</ele>
        <time>2018-02-24T16:57:45Z</time>
      </trkpt>
      <trkpt lat="47.50955" lon="-1.32686">
        <ele>54</ele>
        <time>2018-02-24T16:57:49Z</time>
      </trkpt>
      <trkpt lat="47.50966" lon="-1.3268">
        <ele>54</ele>
        <time>2018-02-24T16:57:53Z</time>
      </trkpt>
      <trkpt lat="47.50993" lon="-1.32666">
        <ele>54</ele>
        <time>2018-02-24T16:58:02Z</time>
      </trkpt>
      <trkpt lat="47.51014" lon="-1.32662">
        <ele>54</ele>
        <time>2018-02-24T16:58:09Z</time>
      </trkpt>
      <trkpt lat="47.51035" lon="-1.32667">
        <ele>55</ele>
        <time>2018-02-24T16:58:16Z</time>
      </trkpt>
      <trkpt lat="47.5104" lon="-1.32668">
        <ele>55</ele>
        <time>2018-02-24T16:58:18Z</time>
      </trkpt>
      <trkpt lat="47.51054" lon="-1.32673">
        <ele>55</ele>
        <time>2018-02-24T16:58:23Z</time>
      </trkpt>
      <trkpt lat="47.51076" lon="-1.32676">
        <ele>55</ele>
        <time>2018-02-24T16:58:31Z</time>
      </trkpt>
      <trkpt lat="47.5108" lon="-1.32673">
        <ele>55</ele>
        <time>2018-02-24T16:58:33Z</time>
      </trkpt>
      <trkpt lat="47.51081" lon="-1.32668">
        <ele>55</ele>
        <time>2018-02-24T16:58:35Z</time>
      </trkpt>
      <trkpt lat="47.51081" lon="-1.32661">
        <ele>55</ele>
        <time>2018-02-24T16:58:38Z</time>
      </trkpt>
      <trkpt lat="47.51082" lon="-1.32655">
        <ele>56</ele>
        <time>2018-02-24T16:58:41Z</time>
      </trkpt>
      <trkpt lat="47.51081" lon="-1.32639">
        <ele>56</ele>
        <time>2018-02-24T16:58:49Z</time>
      </trkpt>
      <trkpt lat="47.51081" lon="-1.32615">
        <ele>56</ele>
        <time>2018-02-24T16:58:58Z</time>
      </trkpt>
      <trkpt lat="47.5108" lon="-1.32591">
        <ele>56</ele>
        <time>2018-02-24T16:59:05Z</time>
      </trkpt>
      <trkpt lat="47.51079" lon="-1.32573">
        <ele>56</ele>
        <time>2018-02-24T16:59:09Z</time>
      </trkpt>
      <trkpt lat="47.51078" lon="-1.32557">
        <ele>56</ele>
        <time>2018-02-24T16:59:13Z</time>
      </trkpt>
      <trkpt lat="47.51076" lon="-1.32528">
        <ele>56</ele>
        <time>2018-02-24T16:59:20Z</time>
      </trkpt>
      <trkpt lat="47.51074" lon="-1.32496">
        <ele>56</ele>
        <time>2018-02-24T16:59:27Z</time>
      </trkpt>
      <trkpt lat="47.5107" lon="-1.32449">
        <ele>57</ele>
        <time>2018-02-24T16:59:37Z</time>
      </trkpt>
      <trkpt lat="47.51068" lon="-1.32418">
        <ele>57</ele>
        <time>2018-02-24T16:59:44Z</time>
      </trkpt>
      <trkpt lat="47.51067" lon="-1.32413">
        <ele>57</ele>
        <time>2018-02-24T16:59:45Z</time>
      </trkpt>
      <trkpt lat="47.51064" lon="-1.32383">
        <ele>57</ele>
        <time>2018-02-24T16:59:52Z</time>
      </trkpt>
      <trkpt lat="47.51062" lon="-1.32353">
        <ele>57</ele>
        <time>2018-02-24T16:59:59Z</time>
      </trkpt>
      <trkpt lat="47.51061" lon="-1.32315">
        <ele>57</ele>
        <time>2018-02-24T17:00:07Z</time>
      </trkpt>
      <trkpt lat="47.51061" lon="-1.32268">
        <ele>58</ele>
        <time>2018-02-24T17:00:18Z</time>
      </trkpt>
      <trkpt lat="47.51061" lon="-1.32264">
        <ele>58</ele>
        <time>2018-02-24T17:00:19Z</time>
      </trkpt>
      <trkpt lat="47.51061" lon="-1.32214">
        <ele>59</ele>
        <time>2018-02-24T17:00:31Z</time>
      </trkpt>
      <trkpt lat="47.5106" lon="-1.32189">
        <ele>59</ele>
        <time>2018-02-24T17:00:37Z</time>
      </trkpt>
      <trkpt lat="47.51058" lon="-1.32164">
        <ele>59</ele>
        <time>2018-02-24T17:00:43Z</time>
      </trkpt>
      <trkpt lat="47.51056" lon="-1.32148">
        <ele>60</ele>
        <time>2018-02-24T17:00:47Z</time>
      </trkpt>
      <trkpt lat="47.51054" lon="-1.32128">
        <ele>60</ele>
        <time>2018-02-24T17:00:52Z</time>
      </trkpt>
      <trkpt lat="47.5105" lon="-1.32094">
        <ele>60</ele>
        <time>2018-02-24T17:01:01Z</time>
      </trkpt>
      <trkpt lat="47.51047" lon="-1.32064">
        <ele>61</ele>
        <time>2018-02-24T17:01:09Z</time>
      </trkpt>
      <trkpt lat="47.51045" lon="-1.32049">
        <ele>61</ele>
        <time>2018-02-24T17:01:13Z</time>
      </trkpt>
      <trkpt lat="47.51041" lon="-1.32031">
        <ele>61</ele>
        <time>2018-02-24T17:01:18Z</time>
      </trkpt>
      <trkpt lat="47.51036" lon="-1.31989">
        <ele>62</ele>
        <time>2018-02-24T17:01:30Z</time>
      </trkpt>
      <trkpt lat="47.5103" lon="-1.31963">
        <ele>62</ele>
        <time>2018-02-24T17:01:38Z</time>
      </trkpt>
      <trkpt lat="47.51023" lon="-1.31944">
        <ele>62</ele>
        <time>2018-02-24T17:01:44Z</time>
      </trkpt>
      <trkpt lat="47.51015" lon="-1.31938">
        <ele>61</ele>
        <time>2018-02-24T17:01:50Z</time>
      </trkpt>
      <trkpt lat="47.51015" lon="-1.31934">
        <ele>61</ele>
        <time>2018-02-24T17:04:47Z</time>
      </trkpt>
      <trkpt lat="47.51016" lon="-1.31929">
        <ele>61</ele>
        <time>2018-02-24T17:04:49Z</time>
      </trkpt>
      <trkpt lat="47.51024" lon="-1.31903">
        <ele>61</ele>
        <time>2018-02-24T17:04:55Z</time>
      </trkpt>
      <trkpt lat="47.5104" lon="-1.31863">
        <ele>60</ele>
        <time>2018-02-24T17:05:03Z</time>
      </trkpt>
      <trkpt lat="47.51043" lon="-1.31859">
        <ele>60</ele>
        <time>2018-02-24T17:05:04Z</time>
      </trkpt>
      <trkpt lat="47.5106" lon="-1.3184">
        <ele>59</ele>
        <time>2018-02-24T17:05:08Z</time>
      </trkpt>
      <trkpt lat="47.51064" lon="-1.31835">
        <ele>59</ele>
        <time>2018-02-24T17:05:09Z</time>
      </trkpt>
      <trkpt lat="47.51075" lon="-1.31825">
        <ele>58</ele>
        <time>2018-02-24T17:05:11Z</time>
      </trkpt>
      <trkpt lat="47.51087" lon="-1.31814">
        <ele>57</ele>
        <time>2018-02-24T17:05:13Z</time>
      </trkpt>
      <trkpt lat="47.51093" lon="-1.31808">
        <ele>56</ele>
        <time>2018-02-24T17:05:14Z</time>
      </trkpt>
      <trkpt lat="47.51098" lon="-1.31803">
        <ele>55</ele>
        <time>2018-02-24T17:05:15Z</time>
      </trkpt>
      <trkpt lat="47.5111" lon="-1.31791">
        <ele>54</ele>
        <time>2018-02-24T17:05:17Z</time>
      </trkpt>
      <trkpt lat="47.51115" lon="-1.31785">
        <ele>54</ele>
        <time>2018-02-24T17:05:18Z</time>
      </trkpt>
      <trkpt lat="47.51121" lon="-1.31778">
        <ele>53</ele>
        <time>2018-02-24T17:05:19Z</time>
      </trkpt>
      <trkpt lat="47.51129" lon="-1.31761">
        <ele>51</ele>
        <time>2018-02-24T17:05:21Z</time>
      </trkpt>
      <trkpt lat="47.51137" lon="-1.31741">
        <ele>50</ele>
        <time>2018-02-24T17:05:23Z</time>
      </trkpt>
      <trkpt lat="47.51144" lon="-1.3172">
        <ele>49</ele>
        <time>2018-02-24T17:05:25Z</time>
      </trkpt>
      <trkpt lat="47.51147" lon="-1.31708">
        <ele>48</ele>
        <time>2018-02-24T17:05:26Z</time>
      </trkpt>
      <trkpt lat="47.5115" lon="-1.31697">
        <ele>47</ele>
        <time>2018-02-24T17:05:27Z</time>
      </trkpt>
      <trkpt lat="47.51157" lon="-1.31674">
        <ele>46</ele>
        <time>2018-02-24T17:05:29Z</time>
      </trkpt>
      <trkpt lat="47.5117" lon="-1.31641">
        <ele>45</ele>
        <time>2018-02-24T17:05:32Z</time>
      </trkpt>
      <trkpt lat="47.5118" lon="-1.31624">
        <ele>43</ele>
        <time>2018-02-24T17:05:34Z</time>
      </trkpt>
      <trkpt lat="47.51194" lon="-1.31599">
        <ele>42</ele>
        <time>2018-02-24T17:05:37Z</time>
      </trkpt>
      <trkpt lat="47.51199" lon="-1.31591">
        <ele>41</ele>
        <time>2018-02-24T17:05:38Z</time>
      </trkpt>
      <trkpt lat="47.51204" lon="-1.31583">
        <ele>40</ele>
        <time>2018-02-24T17:05:39Z</time>
      </trkpt>
      <trkpt lat="47.51231" lon="-1.31543">
        <ele>39</ele>
        <time>2018-02-24T17:05:45Z</time>
      </trkpt>
      <trkpt lat="47.51238" lon="-1.31531">
        <ele>39</ele>
        <time>2018-02-24T17:05:47Z</time>
      </trkpt>
      <trkpt lat="47.51244" lon="-1.3151">
        <ele>38</ele>
        <time>2018-02-24T17:05:50Z</time>
      </trkpt>
      <trkpt lat="47.51246" lon="-1.31497">
        <ele>38</ele>
        <time>2018-02-24T17:05:52Z</time>
      </trkpt>
      <trkpt lat="47.51249" lon="-1.31475">
        <ele>37</ele>
        <time>2018-02-24T17:05:56Z</time>
      </trkpt>
      <trkpt lat="47.5125" lon="-1.31446">
        <ele>38</ele>
        <time>2018-02-24T17:06:02Z</time>
      </trkpt>
      <trkpt lat="47.51242" lon="-1.31406">
        <ele>38</ele>
        <time>2018-02-24T17:06:10Z</time>
      </trkpt>
      <trkpt lat="47.51232" lon="-1.31374">
        <ele>38</ele>
        <time>2018-02-24T17:06:17Z</time>
      </trkpt>
      <trkpt lat="47.51226" lon="-1.31335">
        <ele>38</ele>
        <time>2018-02-24T17:06:24Z</time>
      </trkpt>
      <trkpt lat="47.51227" lon="-1.31323">
        <ele>38</ele>
        <time>2018-02-24T17:06:26Z</time>
      </trkpt>
      <trkpt lat="47.51232" lon="-1.31306">
        <ele>38</ele>
        <time>2018-02-24T17:06:29Z</time>
      </trkpt>
      <trkpt lat="47.5125" lon="-1.3126">
        <ele>38</ele>
        <time>2018-02-24T17:06:37Z</time>
      </trkpt>
      <trkpt lat="47.51272" lon="-1.31201">
        <ele>37</ele>
        <time>2018-02-24T17:06:47Z</time>
      </trkpt>
      <trkpt lat="47.51277" lon="-1.31189">
        <ele>37</ele>
        <time>2018-02-24T17:06:49Z</time>
      </trkpt>
      <trkpt lat="47.51298" lon="-1.31136">
        <ele>36</ele>
        <time>2018-02-24T17:06:58Z</time>
      </trkpt>
      <trkpt lat="47.51302" lon="-1.31125">
        <ele>36</ele>
        <time>2018-02-24T17:07:00Z</time>
      </trkpt>
      <trkpt lat="47.51322" lon="-1.3106">
        <ele>35</ele>
        <time>2018-02-24T17:07:11Z</time>
      </trkpt>
      <trkpt lat="47.51327" lon="-1.31036">
        <ele>35</ele>
        <time>2018-02-24T17:07:15Z</time>
      </trkpt>
      <trkpt lat="47.51336" lon="-1.30993">
        <ele>34</ele>
        <time>2018-02-24T17:07:22Z</time>
      </trkpt>
      <trkpt lat="47.51351" lon="-1.30932">
        <ele>34</ele>
        <time>2018-02-24T17:07:32Z</time>
      </trkpt>
      <trkpt lat="47.51357" lon="-1.30907">
        <ele>34</ele>
        <time>2018-02-24T17:07:36Z</time>
      </trkpt>
      <trkpt lat="47.51363" lon="-1.30885">
        <ele>34</ele>
        <time>2018-02-24T17:07:40Z</time>
      </trkpt>
      <trkpt lat="47.51365" lon="-1.30879">
        <ele>34</ele>
        <time>2018-02-24T17:07:41Z</time>
      </trkpt>
      <trkpt lat="47.51372" lon="-1.30838">
        <ele>33</ele>
        <time>2018-02-24T17:07:49Z</time>
      </trkpt>
      <trkpt lat="47.51374" lon="-1.30829">
        <ele>33</ele>
        <time>2018-02-24T17:07:51Z</time>
      </trkpt>
      <trkpt lat="47.51379" lon="-1.3081">
        <ele>32</ele>
        <time>2018-02-24T17:07:55Z</time>
      </trkpt>
      <trkpt lat="47.51391" lon="-1.30754">
        <ele>32</ele>
        <time>2018-02-24T17:08:06Z</time>
      </trkpt>
      <trkpt lat="47.51393" lon="-1.30749">
        <ele>32</ele>
        <time>2018-02-24T17:08:07Z</time>
      </trkpt>
      <trkpt lat="47.51403" lon="-1.30703">
        <ele>31</ele>
        <time>2018-02-24T17:08:16Z</time>
      </trkpt>
      <trkpt lat="47.51412" lon="-1.30671">
        <ele>31</ele>
        <time>2018-02-24T17:08:23Z</time>
      </trkpt>
      <trkpt lat="47.51413" lon="-1.30666">
        <ele>31</ele>
        <time>2018-02-24T17:08:24Z</time>
      </trkpt>
      <trkpt lat="47.51421" lon="-1.30635">
        <ele>30</ele>
        <time>2018-02-24T17:08:30Z</time>
      </trkpt>
      <trkpt lat="47.51431" lon="-1.30588">
        <ele>30</ele>
        <time>2018-02-24T17:08:38Z</time>
      </trkpt>
      <trkpt lat="47.51438" lon="-1.30554">
        <ele>30</ele>
        <time>2018-02-24T17:08:44Z</time>
      </trkpt>
      <trkpt lat="47.51438" lon="-1.30542">
        <ele>30</ele>
        <time>2018-02-24T17:08:46Z</time>
      </trkpt>
      <trkpt lat="47.5143" lon="-1.30526">
        <ele>30</ele>
        <time>2018-02-24T17:08:50Z</time>
      </trkpt>
      <trkpt lat="47.51419" lon="-1.3052">
        <ele>30</ele>
        <time>2018-02-24T17:08:53Z</time>
      </trkpt>
      <trkpt lat="47.51408" lon="-1.30515">
        <ele>30</ele>
        <time>2018-02-24T17:08:56Z</time>
      </trkpt>
      <trkpt lat="47.51377" lon="-1.305">
        <ele>31</ele>
        <time>2018-02-24T17:09:05Z</time>
      </trkpt>
      <trkpt lat="47.5137" lon="-1.30497">
        <ele>31</ele>
        <time>2018-02-24T17:09:07Z</time>
      </trkpt>
      <trkpt lat="47.51345" lon="-1.3049">
        <ele>32</ele>
        <time>2018-02-24T17:09:14Z</time>
      </trkpt>
      <trkpt lat="47.51324" lon="-1.30482">
        <ele>32</ele>
        <time>2018-02-24T17:09:20Z</time>
      </trkpt>
      <trkpt lat="47.51308" lon="-1.30474">
        <ele>33</ele>
        <time>2018-02-24T17:09:25Z</time>
      </trkpt>
      <trkpt lat="47.51296" lon="-1.30467">
        <ele>34</ele>
        <time>2018-02-24T17:09:29Z</time>
      </trkpt>
      <trkpt lat="47.51285" lon="-1.30461">
        <ele>34</ele>
        <time>2018-02-24T17:09:33Z</time>
      </trkpt>
      <trkpt lat="47.51277" lon="-1.30456">
        <ele>34</ele>
        <time>2018-02-24T17:09:36Z</time>
      </trkpt>
      <trkpt lat="47.51267" lon="-1.30449">
        <ele>34</ele>
        <time>2018-02-24T17:09:42Z</time>
      </trkpt>
      <trkpt lat="47.51264" lon="-1.30449">
        <ele>34</ele>
        <time>2018-02-24T17:11:28Z</time>
      </trkpt>
      <trkpt lat="47.51259" lon="-1.30449">
        <ele>34</ele>
        <time>2018-02-24T17:11:30Z</time>
      </trkpt>
      <trkpt lat="47.51247" lon="-1.30443">
        <ele>34</ele>
        <time>2018-02-24T17:11:34Z</time>
      </trkpt>
      <trkpt lat="47.51215" lon="-1.30426">
        <ele>34</ele>
        <time>2018-02-24T17:11:42Z</time>
      </trkpt>
      <trkpt lat="47.51187" lon="-1.30409">
        <ele>33</ele>
        <time>2018-02-24T17:11:48Z</time>
      </trkpt>
      <trkpt lat="47.5117" lon="-1.304">
        <ele>33</ele>
        <time>2018-02-24T17:11:51Z</time>
      </trkpt>
      <trkpt lat="47.51154" lon="-1.30391">
        <ele>32</ele>
        <time>2018-02-24T17:11:54Z</time>
      </trkpt>
      <trkpt lat="47.51149" lon="-1.30388">
        <ele>31</ele>
        <time>2018-02-24T17:11:55Z</time>
      </trkpt>
      <trkpt lat="47.51138" lon="-1.30381">
        <ele>31</ele>
        <time>2018-02-24T17:11:57Z</time>
      </trkpt>
      <trkpt lat="47.51123" lon="-1.30367">
        <ele>29</ele>
        <time>2018-02-24T17:12:00Z</time>
      </trkpt>
      <trkpt lat="47.51118" lon="-1.30362">
        <ele>29</ele>
        <time>2018-02-24T17:12:01Z</time>
      </trkpt>
      <trkpt lat="47.51108" lon="-1.30351">
        <ele>28</ele>
        <time>2018-02-24T17:12:03Z</time>
      </trkpt>
      <trkpt lat="47.51093" lon="-1.30336">
        <ele>26</ele>
        <time>2018-02-24T17:12:06Z</time>
      </trkpt>
      <trkpt lat="47.51083" lon="-1.30325">
        <ele>25</ele>
        <time>2018-02-24T17:12:08Z</time>
      </trkpt>
      <trkpt lat="47.5108" lon="-1.30318">
        <ele>25</ele>
        <time>2018-02-24T17:12:09Z</time>
      </trkpt>
      <trkpt lat="47.51076" lon="-1.30301">
        <ele>24</ele>
        <time>2018-02-24T17:12:11Z</time>
      </trkpt>
      <trkpt lat="47.51075" lon="-1.30292">
        <ele>24</ele>
        <time>2018-02-24T17:12:12Z</time>
      </trkpt>
      <trkpt lat="47.51076" lon="-1.30267">
        <ele>23</ele>
        <time>2018-02-24T17:12:15Z</time>
      </trkpt>
      <trkpt lat="47.51077" lon="-1.30258">
        <ele>22</ele>
        <time>2018-02-24T17:12:16Z</time>
      </trkpt>
      <trkpt lat="47.51078" lon="-1.30249">
        <ele>22</ele>
        <time>2018-02-24T17:12:17Z</time>
      </trkpt>
      <trkpt lat="47.5109" lon="-1.30208">
        <ele>22</ele>
        <time>2018-02-24T17:12:22Z</time>
      </trkpt>
      <trkpt lat="47.51093" lon="-1.30201">
        <ele>22</ele>
        <time>2018-02-24T17:12:23Z</time>
      </trkpt>
      <trkpt lat="47.51102" lon="-1.30188">
        <ele>21</ele>
        <time>2018-02-24T17:12:26Z</time>
      </trkpt>
      <trkpt lat="47.5111" lon="-1.30177">
        <ele>21</ele>
        <time>2018-02-24T17:12:31Z</time>
      </trkpt>
      <trkpt lat="47.51122" lon="-1.30162">
        <ele>22</ele>
        <time>2018-02-24T17:12:38Z</time>
      </trkpt>
      <trkpt lat="47.51135" lon="-1.30147">
        <ele>22</ele>
        <time>2018-02-24T17:12:46Z</time>
      </trkpt>
      <trkpt lat="47.51148" lon="-1.30132">
        <ele>22</ele>
        <time>2018-02-24T17:12:54Z</time>
      </trkpt>
      <trkpt lat="47.5116" lon="-1.30124">
        <ele>22</ele>
        <time>2018-02-24T17:13:00Z</time>
      </trkpt>
      <trkpt lat="47.51162" lon="-1.30123">
        <ele>23</ele>
        <time>2018-02-24T17:13:01Z</time>
      </trkpt>
      <trkpt lat="47.51176" lon="-1.30116">
        <ele>23</ele>
        <time>2018-02-24T17:13:06Z</time>
      </trkpt>
      <trkpt lat="47.51179" lon="-1.30115">
        <ele>24</ele>
        <time>2018-02-24T17:13:07Z</time>
      </trkpt>
      <trkpt lat="47.51189" lon="-1.3011">
        <ele>25</ele>
        <time>2018-02-24T17:13:11Z</time>
      </trkpt>
      <trkpt lat="47.51197" lon="-1.30107">
        <ele>25</ele>
        <time>2018-02-24T17:13:14Z</time>
      </trkpt>
      <trkpt lat="47.51204" lon="-1.30104">
        <ele>26</ele>
        <time>2018-02-24T17:13:17Z</time>
      </trkpt>
      <trkpt lat="47.51215" lon="-1.30098">
        <ele>26</ele>
        <time>2018-02-24T17:13:21Z</time>
      </trkpt>
      <trkpt lat="47.51225" lon="-1.30093">
        <ele>27</ele>
        <time>2018-02-24T17:13:25Z</time>
      </trkpt>
      <trkpt lat="47.51242" lon="-1.30089">
        <ele>28</ele>
        <time>2018-02-24T17:13:31Z</time>
      </trkpt>
      <trkpt lat="47.51251" lon="-1.30087">
        <ele>28</ele>
        <time>2018-02-24T17:13:34Z</time>
      </trkpt>
      <trkpt lat="47.51264" lon="-1.30085">
        <ele>29</ele>
        <time>2018-02-24T17:13:39Z</time>
      </trkpt>
      <trkpt lat="47.51269" lon="-1.30084">
        <ele>29</ele>
        <time>2018-02-24T17:13:41Z</time>
      </trkpt>
      <trkpt lat="47.51286" lon="-1.30081">
        <ele>29</ele>
        <time>2018-02-24T17:13:47Z</time>
      </trkpt>
      <trkpt lat="47.5129" lon="-1.30075">
        <ele>30</ele>
        <time>2018-02-24T17:13:51Z</time>
      </trkpt>
      <trkpt lat="47.5129" lon="-1.30074">
        <ele>30</ele>
        <time>2018-02-24T17:13:52Z</time>
      </trkpt>
      <trkpt lat="47.51291" lon="-1.30069">
        <ele>30</ele>
        <time>2018-02-24T17:15:05Z</time>
      </trkpt>
      <trkpt lat="47.51291" lon="-1.30065">
        <ele>30</ele>
        <time>2018-02-24T17:15:06Z</time>
      </trkpt>
      <trkpt lat="47.51289" lon="-1.30038">
        <ele>30</ele>
        <time>2018-02-24T17:15:11Z</time>
      </trkpt>
      <trkpt lat="47.51289" lon="-1.30033">
        <ele>30</ele>
        <time>2018-02-24T17:15:12Z</time>
      </trkpt>
      <trkpt lat="47.51286" lon="-1.29987">
        <ele>31</ele>
        <time>2018-02-24T17:15:20Z</time>
      </trkpt>
      <trkpt lat="47.51286" lon="-1.29982">
        <ele>31</ele>
        <time>2018-02-24T17:15:21Z</time>
      </trkpt>
      <trkpt lat="47.51285" lon="-1.29938">
        <ele>32</ele>
        <time>2018-02-24T17:15:29Z</time>
      </trkpt>
      <trkpt lat="47.51285" lon="-1.29926">
        <ele>32</ele>
        <time>2018-02-24T17:15:31Z</time>
      </trkpt>
      <trkpt lat="47.51286" lon="-1.2992">
        <ele>32</ele>
        <time>2018-02-24T17:15:32Z</time>
      </trkpt>
      <trkpt lat="47.5129" lon="-1.29894">
        <ele>32</ele>
        <time>2018-02-24T17:15:36Z</time>
      </trkpt>
      <trkpt lat="47.51292" lon="-1.29881">
        <ele>31</ele>
        <time>2018-02-24T17:15:38Z</time>
      </trkpt>
      <trkpt lat="47.51298" lon="-1.29858">
        <ele>30</ele>
        <time>2018-02-24T17:15:42Z</time>
      </trkpt>
      <trkpt lat="47.51302" lon="-1.29847">
        <ele>29</ele>
        <time>2018-02-24T17:15:45Z</time>
      </trkpt>
      <trkpt lat="47.51306" lon="-1.29834">
        <ele>27</ele>
        <time>2018-02-24T17:15:48Z</time>
      </trkpt>
      <trkpt lat="47.51317" lon="-1.29804">
        <ele>26</ele>
        <time>2018-02-24T17:15:53Z</time>
      </trkpt>
      <trkpt lat="47.51319" lon="-1.29797">
        <ele>26</ele>
        <time>2018-02-24T17:15:54Z</time>
      </trkpt>
      <trkpt lat="47.51326" lon="-1.29776">
        <ele>26</ele>
        <time>2018-02-24T17:15:57Z</time>
      </trkpt>
      <trkpt lat="47.51332" lon="-1.29762">
        <ele>25</ele>
        <time>2018-02-24T17:15:59Z</time>
      </trkpt>
      <trkpt lat="47.51348" lon="-1.29739">
        <ele>24</ele>
        <time>2018-02-24T17:16:03Z</time>
      </trkpt>
      <trkpt lat="47.51357" lon="-1.29729">
        <ele>23</ele>
        <time>2018-02-24T17:16:05Z</time>
      </trkpt>
      <trkpt lat="47.51368" lon="-1.2971">
        <ele>23</ele>
        <time>2018-02-24T17:16:08Z</time>
      </trkpt>
      <trkpt lat="47.51372" lon="-1.29703">
        <ele>23</ele>
        <time>2018-02-24T17:16:09Z</time>
      </trkpt>
      <trkpt lat="47.51378" lon="-1.29688">
        <ele>22</ele>
        <time>2018-02-24T17:16:11Z</time>
      </trkpt>
      <trkpt lat="47.51387" lon="-1.29666">
        <ele>22</ele>
        <time>2018-02-24T17:16:14Z</time>
      </trkpt>
      <trkpt lat="47.51393" lon="-1.29642">
        <ele>21</ele>
        <time>2018-02-24T17:16:17Z</time>
      </trkpt>
      <trkpt lat="47.51404" lon="-1.29602">
        <ele>21</ele>
        <time>2018-02-24T17:16:23Z</time>
      </trkpt>
      <trkpt lat="47.51417" lon="-1.2956">
        <ele>20</ele>
        <time>2018-02-24T17:16:30Z</time>
      </trkpt>
      <trkpt lat="47.51428" lon="-1.29524">
        <ele>20</ele>
        <time>2018-02-24T17:16:36Z</time>
      </trkpt>
      <trkpt lat="47.5143" lon="-1.29511">
        <ele>20</ele>
        <time>2018-02-24T17:16:38Z</time>
      </trkpt>
      <trkpt lat="47.51436" lon="-1.29481">
        <ele>20</ele>
        <time>2018-02-24T17:16:43Z</time>
      </trkpt>
      <trkpt lat="47.51438" lon="-1.29451">
        <ele>20</ele>
        <time>2018-02-24T17:16:49Z</time>
      </trkpt>
      <trkpt lat="47.51438" lon="-1.29427">
        <ele>20</ele>
        <time>2018-02-24T17:16:54Z</time>
      </trkpt>
      <trkpt lat="47.51439" lon="-1.29389">
        <ele>21</ele>
        <time>2018-02-24T17:17:02Z</time>
      </trkpt>
      <trkpt lat="47.51439" lon="-1.29367">
        <ele>21</ele>
        <time>2018-02-24T17:17:06Z</time>
      </trkpt>
      <trkpt lat="47.51439" lon="-1.2935">
        <ele>21</ele>
        <time>2018-02-24T17:17:09Z</time>
      </trkpt>
      <trkpt lat="47.51439" lon="-1.29309">
        <ele>21</ele>
        <time>2018-02-24T17:17:16Z</time>
      </trkpt>
      <trkpt lat="47.5144" lon="-1.29292">
        <ele>22</ele>
        <time>2018-02-24T17:17:19Z</time>
      </trkpt>
      <trkpt lat="47.51441" lon="-1.29275">
        <ele>22</ele>
        <time>2018-02-24T17:17:22Z</time>
      </trkpt>
      <trkpt lat="47.51446" lon="-1.2923">
        <ele>23</ele>
        <time>2018-02-24T17:17:30Z</time>
      </trkpt>
      <trkpt lat="47.51452" lon="-1.29186">
        <ele>23</ele>
        <time>2018-02-24T17:17:38Z</time>
      </trkpt>
      <trkpt lat="47.51453" lon="-1.29165">
        <ele>24</ele>
        <time>2018-02-24T17:17:42Z</time>
      </trkpt>
      <trkpt lat="47.51454" lon="-1.29139">
        <ele>25</ele>
        <time>2018-02-24T17:17:47Z</time>
      </trkpt>
      <trkpt lat="47.51454" lon="-1.29129">
        <ele>25</ele>
        <time>2018-02-24T17:17:49Z</time>
      </trkpt>
      <trkpt lat="47.51456" lon="-1.29106">
        <ele>25</ele>
        <time>2018-02-24T17:17:54Z</time>
      </trkpt>
      <trkpt lat="47.51458" lon="-1.29084">
        <ele>25</ele>
        <time>2018-02-24T17:18:00Z</time>
      </trkpt>
      <trkpt lat="47.51457" lon="-1.2908">
        <ele>24</ele>
        <time>2018-02-24T17:19:25Z</time>
      </trkpt>
      <trkpt lat="47.51457" lon="-1.29076">
        <ele>24</ele>
        <time>2018-02-24T17:19:26Z</time>
      </trkpt>
      <trkpt lat="47.51456" lon="-1.29051">
        <ele>24</ele>
        <time>2018-02-24T17:19:31Z</time>
      </trkpt>
      <trkpt lat="47.51458" lon="-1.29009">
        <ele>26</ele>
        <time>2018-02-24T17:19:38Z</time>
      </trkpt>
      <trkpt lat="47.5146" lon="-1.28957">
        <ele>25</ele>
        <time>2018-02-24T17:19:46Z</time>
      </trkpt>
      <trkpt lat="47.51461" lon="-1.28936">
        <ele>25</ele>
        <time>2018-02-24T17:19:49Z</time>
      </trkpt>
      <trkpt lat="47.51465" lon="-1.28924">
        <ele>25</ele>
        <time>2018-02-24T17:19:51Z</time>
      </trkpt>
      <trkpt lat="47.51477" lon="-1.28913">
        <ele>25</ele>
        <time>2018-02-24T17:19:54Z</time>
      </trkpt>
      <trkpt lat="47.51485" lon="-1.28896">
        <ele>24</ele>
        <time>2018-02-24T17:19:59Z</time>
      </trkpt>
      <trkpt lat="47.51474" lon="-1.2888">
        <ele>23</ele>
        <time>2018-02-24T17:20:02Z</time>
      </trkpt>
      <trkpt lat="47.51448" lon="-1.28853">
        <ele>23</ele>
        <time>2018-02-24T17:20:07Z</time>
      </trkpt>
      <trkpt lat="47.51444" lon="-1.28847">
        <ele>23</ele>
        <time>2018-02-24T17:20:08Z</time>
      </trkpt>
      <trkpt lat="47.51422" lon="-1.28818">
        <ele>22</ele>
        <time>2018-02-24T17:20:13Z</time>
      </trkpt>
      <trkpt lat="47.51419" lon="-1.28813">
        <ele>22</ele>
        <time>2018-02-24T17:20:14Z</time>
      </trkpt>
      <trkpt lat="47.51413" lon="-1.28807">
        <ele>21</ele>
        <time>2018-02-24T17:20:16Z</time>
      </trkpt>
      <trkpt lat="47.51407" lon="-1.28808">
        <ele>21</ele>
        <time>2018-02-24T17:20:18Z</time>
      </trkpt>
      <trkpt lat="47.51401" lon="-1.28812">
        <ele>21</ele>
        <time>2018-02-24T17:20:22Z</time>
      </trkpt>
      <trkpt lat="47.514" lon="-1.28814">
        <ele>21</ele>
        <time>2018-02-24T17:20:23Z</time>
      </trkpt>
      <trkpt lat="47.514" lon="-1.28816">
        <ele>21</ele>
        <time>2018-02-24T17:20:24Z</time>
      </trkpt>
      <trkpt lat="47.51397" lon="-1.28823">
        <ele>21</ele>
        <time>2018-02-24T17:20:29Z</time>
      </trkpt>
    </trkseg>
  </trk>
</gpx>